Observation data for Stamford on 08/14/2019      Previous  Date  Next       Current Mesonet Observations  Soil Data  Daily Summary Page  Observations in Plain Language
KST2 140500Z 04009KT 30/22 A3001 RMK A01 T02950220  RH  064%=      5-min Rain = 0
KST2 140501Z 05007KT 29/22 A3001 RMK A01 T02940220  RH  064%=      5-min Rain = 0
KST2 140502Z 04007KT 29/22 A3001 RMK A01 T02940220  RH  064%=      5-min Rain = 0
KST2 140503Z 04007KT 29/22 A3001 RMK A01 T02940220  RH  064%=      5-min Rain = 0
KST2 140504Z 04008KT 29/22 A3001 RMK A01 T02940220  RH  064%=      5-min Rain = 0
KST2 140505Z 03006KT 29/22 A3001 RMK A01 T02940220  RH  064%=      5-min Rain = 0
KST2 140506Z 04006KT 29/22 A3001 RMK A01 T02940220  RH  064%=      5-min Rain = 0
KST2 140507Z 03007G12KT 29/22 A3001 RMK A01 T02930220  RH  064%=      5-min Rain = 0
KST2 140508Z 04008KT 29/22 A3002 RMK A01 T02930219  RH  065%=      5-min Rain = 0
KST2 140509Z 04009KT 29/22 A3002 RMK A01 T02930220  RH  065%=      5-min Rain = 0
KST2 140510Z 04010KT 29/22 A3002 RMK A01 T02930219  RH  065%=      5-min Rain = 0
KST2 140512Z 05011KT 29/22 A3001 RMK A01 T02920219  RH  065%=      5-min Rain = 0
KST2 140513Z 05010KT 29/22 A3001 RMK A01 T02920219  RH  065%=      5-min Rain = 0
KST2 140514Z 07013KT 29/22 A3001 RMK A01 T02920219  RH  064%=      5-min Rain = 0
KST2 140515Z 06012KT 29/22 A3001 RMK A01 T02920218  RH  064%=      5-min Rain = 0
KST2 140516Z 06012KT 29/22 A3001 RMK A01 T02920218  RH  064%=      5-min Rain = 0
KST2 140517Z 06011KT 29/22 A3001 RMK A01 T02920218  RH  064%=      5-min Rain = 0
KST2 140518Z 06011KT 29/22 A3001 RMK A01 T02920217  RH  064%=      5-min Rain = 0
KST2 140519Z 06011KT 29/22 A3001 RMK A01 T02920217  RH  064%=      5-min Rain = 0
KST2 140520Z 07009KT 29/22 A3001 RMK A01 T02920217  RH  064%=      5-min Rain = 0
KST2 140521Z 07010KT 29/22 A3001 RMK A01 T02920217  RH  064%=      5-min Rain = 0
KST2 140522Z 06011KT 29/22 A3001 RMK A01 T02920218  RH  064%=      5-min Rain = 0
KST2 140523Z 06011KT 29/22 A3001 RMK A01 T02920217  RH  064%=      5-min Rain = 0
KST2 140524Z 06012KT 29/22 A3001 RMK A01 T02920218  RH  064%=      5-min Rain = 0
KST2 140525Z 06010G15KT 29/22 A3001 RMK A01 T02920217  RH  064%=      5-min Rain = 0
KST2 140526Z 06010G15KT 29/22 A3001 RMK A01 T02920217  RH  064%=      5-min Rain = 0
KST2 140527Z 06011KT 29/22 A3001 RMK A01 T02920217  RH  064%=      5-min Rain = 0
KST2 140528Z 07012KT 29/22 A3001 RMK A01 T02910217  RH  064%=      5-min Rain = 0
KST2 140529Z 06009KT 29/22 A3001 RMK A01 T02920217  RH  064%=      5-min Rain = 0
KST2 140530Z 06011KT 29/22 A3001 RMK A01 T02920217  RH  064%=      5-min Rain = 0
KST2 140531Z 06013KT 29/22 A3001 RMK A01 T02920217  RH  064%=      5-min Rain = 0
KST2 140532Z 05011KT 29/22 A3001 RMK A01 T02920217  RH  064%=      5-min Rain = 0
KST2 140533Z 06011KT 29/22 A3001 RMK A01 T02910216  RH  064%=      5-min Rain = 0
KST2 140534Z 06013KT 29/22 A3001 RMK A01 T02910217  RH  064%=      5-min Rain = 0
KST2 140535Z 06012KT 29/22 A3001 RMK A01 T02910217  RH  064%=      5-min Rain = 0
KST2 140536Z 06011KT 29/22 A3001 RMK A01 T02910217  RH  064%=      5-min Rain = 0
KST2 140537Z 06011KT 29/22 A3001 RMK A01 T02910216  RH  064%=      5-min Rain = 0
KST2 140538Z 06010KT 29/22 A3001 RMK A01 T02910216  RH  064%=      5-min Rain = 0
KST2 140539Z 05011KT 29/22 A3001 RMK A01 T02910216  RH  064%=      5-min Rain = 0
KST2 140540Z 06009KT 29/22 A3001 RMK A01 T02910217  RH  064%=      5-min Rain = 0
KST2 140541Z 05010KT 29/22 A3001 RMK A01 T02910216  RH  064%=      5-min Rain = 0
KST2 140542Z 05011KT 29/22 A3001 RMK A01 T02910216  RH  064%=      5-min Rain = 0
KST2 140543Z 05013KT 29/22 A3001 RMK A01 T02910216  RH  064%=      5-min Rain = 0
KST2 140544Z 05011KT 29/22 A3002 RMK A01 T02910216  RH  064%=      5-min Rain = 0
KST2 140545Z 05010KT 29/22 A3002 RMK A01 T02900216  RH  064%=      5-min Rain = 0
KST2 140546Z 05013KT 29/22 A3002 RMK A01 T02900216  RH  064%=      5-min Rain = 0
KST2 140547Z 05013KT 29/22 A3002 RMK A01 T02900217  RH  065%=      5-min Rain = 0
KST2 140548Z 06012KT 29/22 A3002 RMK A01 T02890217  RH  065%=      5-min Rain = 0
KST2 140549Z 05013KT 29/22 A3002 RMK A01 T02880217  RH  065%=      5-min Rain = 0
KST2 140550Z 06011KT 29/22 A3002 RMK A01 T02880217  RH  065%=      5-min Rain = 0
KST2 140551Z 06012KT 29/22 A3002 RMK A01 T02880217  RH  066%=      5-min Rain = 0
KST2 140552Z 06012KT 29/22 A3002 RMK A01 T02870217  RH  066%=      5-min Rain = 0
KST2 140553Z 07011KT 29/22 A3002 RMK A01 T02870218  RH  066%=      5-min Rain = 0
KST2 140554Z 06010KT 29/22 A3002 RMK A01 T02870218  RH  066%=      5-min Rain = 0
KST2 140555Z 06011KT 29/22 A3002 RMK A01 T02860217  RH  066%=      5-min Rain = 0
KST2 140556Z 07011KT 29/22 A3002 RMK A01 T02860218  RH  066%=      5-min Rain = 0
KST2 140557Z 07011KT 29/22 A3002 RMK A01 T02860217  RH  067%=      5-min Rain = 0
KST2 140558Z 06010KT 29/22 A3002 RMK A01 T02860218  RH  067%=      5-min Rain = 0
KST2 140559Z 07009KT 29/22 A3002 RMK A01 T02850217  RH  067%=      5-min Rain = 0
KST2 140600Z 07009KT 29/22 A3002 RMK A01 T02850217  RH  067%=      5-min Rain = 0
KST2 140601Z 07009KT 29/22 A3002 RMK A01 T02850217  RH  067%=      5-min Rain = 0
KST2 140602Z 06010KT 29/22 A3002 RMK A01 T02850217  RH  067%=      5-min Rain = 0
KST2 140603Z 07009KT 28/22 A3002 RMK A01 T02840217  RH  067%=      5-min Rain = 0
KST2 140604Z 06008KT 28/22 A3002 RMK A01 T02840217  RH  067%=      5-min Rain = 0
KST2 140605Z 07008KT 28/22 A3002 RMK A01 T02840217  RH  067%=      5-min Rain = 0
KST2 140606Z 06007KT 28/22 A3002 RMK A01 T02840217  RH  067%=      5-min Rain = 0
KST2 140607Z 05007KT 28/22 A3002 RMK A01 T02840217  RH  067%=      5-min Rain = 0
KST2 140608Z 06008KT 28/22 A3002 RMK A01 T02830217  RH  067%=      5-min Rain = 0
KST2 140609Z 06008KT 28/22 A3002 RMK A01 T02830217  RH  067%=      5-min Rain = 0
KST2 140610Z 05006KT 28/22 A3002 RMK A01 T02830217  RH  067%=      5-min Rain = 0
KST2 140611Z 05007KT 28/22 A3002 RMK A01 T02830217  RH  067%=      5-min Rain = 0
KST2 140612Z 05007KT 28/22 A3002 RMK A01 T02820217  RH  067%=      5-min Rain = 0
KST2 140613Z 05006KT 28/22 A3002 RMK A01 T02830217  RH  068%=      5-min Rain = 0
KST2 140614Z 05006KT 28/22 A3002 RMK A01 T02820217  RH  068%=      5-min Rain = 0
KST2 140615Z 05008KT 28/22 A3002 RMK A01 T02820216  RH  068%=      5-min Rain = 0
KST2 140616Z 06008KT 28/22 A3002 RMK A01 T02820217  RH  068%=      5-min Rain = 0
KST2 140617Z 06009KT 28/22 A3002 RMK A01 T02820217  RH  068%=      5-min Rain = 0
KST2 140618Z 05009KT 28/22 A3002 RMK A01 T02820217  RH  068%=      5-min Rain = 0
KST2 140619Z 05008KT 28/22 A3002 RMK A01 T02820217  RH  068%=      5-min Rain = 0
KST2 140620Z 05009KT 28/22 A3002 RMK A01 T02820217  RH  068%=      5-min Rain = 0
KST2 140621Z 06008KT 28/22 A3002 RMK A01 T02820217  RH  068%=      5-min Rain = 0
KST2 140622Z 05009KT 28/22 A3002 RMK A01 T02820217  RH  068%=      5-min Rain = 0
KST2 140623Z 05007KT 28/22 A3002 RMK A01 T02820217  RH  068%=      5-min Rain = 0
KST2 140624Z 05008KT 28/22 A3002 RMK A01 T02820216  RH  068%=      5-min Rain = 0
KST2 140625Z 05009KT 28/22 A3002 RMK A01 T02810216  RH  068%=      5-min Rain = 0
KST2 140626Z 04007KT 28/22 A3002 RMK A01 T02810216  RH  068%=      5-min Rain = 0
KST2 140627Z 04007KT 28/22 A3002 RMK A01 T02810216  RH  068%=      5-min Rain = 0
KST2 140628Z 05007KT 28/22 A3002 RMK A01 T02800216  RH  068%=      5-min Rain = 0
KST2 140629Z 04008KT 28/22 A3002 RMK A01 T02800216  RH  068%=      5-min Rain = 0
KST2 140630Z 04008KT 28/22 A3002 RMK A01 T02800216  RH  068%=      5-min Rain = 0
KST2 140631Z 04007KT 28/22 A3002 RMK A01 T02800216  RH  068%=      5-min Rain = 0
KST2 140632Z 05007KT 28/22 A3002 RMK A01 T02790216  RH  068%=      5-min Rain = 0
KST2 140633Z 04009KT 28/22 A3002 RMK A01 T02790216  RH  069%=      5-min Rain = 0
KST2 140634Z 05008KT 28/22 A3002 RMK A01 T02790216  RH  069%=      5-min Rain = 0
KST2 140635Z 05007KT 28/22 A3002 RMK A01 T02790216  RH  069%=      5-min Rain = 0
KST2 140636Z 05008KT 28/22 A3002 RMK A01 T02790216  RH  069%=      5-min Rain = 0
KST2 140637Z 05009KT 28/22 A3002 RMK A01 T02790217  RH  069%=      5-min Rain = 0
KST2 140638Z 06009KT 28/22 A3002 RMK A01 T02790217  RH  069%=      5-min Rain = 0
KST2 140639Z 05009KT 28/22 A3002 RMK A01 T02790217  RH  069%=      5-min Rain = 0
KST2 140640Z 05009KT 28/22 A3002 RMK A01 T02790217  RH  069%=      5-min Rain = 0
KST2 140641Z 06009KT 28/22 A3001 RMK A01 T02790217  RH  069%=      5-min Rain = 0
KST2 140642Z 06010KT 28/22 A3001 RMK A01 T02790217  RH  069%=      5-min Rain = 0
KST2 140643Z 06008KT 28/22 A3001 RMK A01 T02790217  RH  069%=      5-min Rain = 0
KST2 140644Z 05009KT 28/22 A3001 RMK A01 T02780217  RH  069%=      5-min Rain = 0
KST2 140645Z 05008KT 28/22 A3001 RMK A01 T02780217  RH  069%=      5-min Rain = 0
KST2 140646Z 05008KT 28/22 A3001 RMK A01 T02780217  RH  069%=      5-min Rain = 0
KST2 140647Z 05007KT 28/22 A3001 RMK A01 T02770216  RH  069%=      5-min Rain = 0
KST2 140648Z 05008KT 28/22 A3001 RMK A01 T02770216  RH  069%=      5-min Rain = 0
KST2 140649Z 05007KT 28/22 A3001 RMK A01 T02770216  RH  069%=      5-min Rain = 0
KST2 140650Z 05009KT 28/22 A3001 RMK A01 T02770216  RH  070%=      5-min Rain = 0
KST2 140651Z 05008KT 28/22 A3001 RMK A01 T02770216  RH  070%=      5-min Rain = 0
KST2 140652Z 05010KT 28/22 A3002 RMK A01 T02760216  RH  070%=      5-min Rain = 0
KST2 140653Z 04009KT 28/22 A3002 RMK A01 T02770217  RH  070%=      5-min Rain = 0
KST2 140654Z 03008KT 28/22 A3001 RMK A01 T02770217  RH  070%=      5-min Rain = 0
KST2 140655Z 04008KT 28/22 A3001 RMK A01 T02760216  RH  070%=      5-min Rain = 0
KST2 140656Z 04008KT 28/22 A3001 RMK A01 T02760216  RH  070%=      5-min Rain = 0
KST2 140657Z 04008KT 28/22 A3001 RMK A01 T02750216  RH  070%=      5-min Rain = 0
KST2 140658Z 04008KT 28/22 A3001 RMK A01 T02750216  RH  070%=      5-min Rain = 0
KST2 140659Z 04009KT 28/22 A3001 RMK A01 T02750216  RH  070%=      5-min Rain = 0
KST2 140700Z 04009KT 28/22 A3001 RMK A01 T02750216  RH  070%=      5-min Rain = 0
KST2 140701Z 04008KT 28/22 A3001 RMK A01 T02750217  RH  070%=      5-min Rain = 0
KST2 140702Z 04008KT 28/22 A3001 RMK A01 T02750216  RH  070%=      5-min Rain = 0
KST2 140703Z 04007KT 28/22 A3001 RMK A01 T02750216  RH  070%=      5-min Rain = 0
KST2 140704Z 04008KT 28/22 A3001 RMK A01 T02750217  RH  071%=      5-min Rain = 0
KST2 140705Z 04008KT 27/22 A3002 RMK A01 T02740216  RH  071%=      5-min Rain = 0
KST2 140706Z 03008KT 27/22 A3002 RMK A01 T02740217  RH  071%=      5-min Rain = 0
KST2 140707Z 03008KT 27/22 A3002 RMK A01 T02740217  RH  071%=      5-min Rain = 0
KST2 140708Z 03008KT 27/22 A3002 RMK A01 T02740216  RH  071%=      5-min Rain = 0
KST2 140709Z 03007KT 27/22 A3002 RMK A01 T02740216  RH  071%=      5-min Rain = 0
KST2 140710Z 04009KT 27/22 A3002 RMK A01 T02740216  RH  071%=      5-min Rain = 0
KST2 140711Z 03008KT 27/22 A3001 RMK A01 T02730216  RH  071%=      5-min Rain = 0
KST2 140712Z 03008KT 27/22 A3002 RMK A01 T02730216  RH  071%=      5-min Rain = 0
KST2 140713Z 03009KT 27/22 A3002 RMK A01 T02730216  RH  071%=      5-min Rain = 0
KST2 140714Z 03009KT 27/22 A3002 RMK A01 T02730216  RH  071%=      5-min Rain = 0
KST2 140715Z 03009KT 27/22 A3002 RMK A01 T02730216  RH  071%=      5-min Rain = 0
KST2 140716Z 03008KT 27/22 A3002 RMK A01 T02730216  RH  071%=      5-min Rain = 0
KST2 140717Z 03009KT 27/22 A3002 RMK A01 T02730216  RH  071%=      5-min Rain = 0
KST2 140718Z 03007KT 27/22 A3002 RMK A01 T02730216  RH  071%=      5-min Rain = 0
KST2 140719Z 03009KT 27/22 A3002 RMK A01 T02730216  RH  071%=      5-min Rain = 0
KST2 140720Z 03008KT 27/22 A3002 RMK A01 T02730216  RH  071%=      5-min Rain = 0
KST2 140721Z 03008KT 27/22 A3002 RMK A01 T02730216  RH  071%=      5-min Rain = 0
KST2 140722Z 03008KT 27/22 A3002 RMK A01 T02720215  RH  071%=      5-min Rain = 0
KST2 140723Z 03009KT 27/22 A3002 RMK A01 T02720215  RH  071%=      5-min Rain = 0
KST2 140724Z 03008KT 27/22 A3002 RMK A01 T02720215  RH  071%=      5-min Rain = 0
KST2 140725Z 03009KT 27/22 A3002 RMK A01 T02720215  RH  071%=      5-min Rain = 0
KST2 140726Z 03008KT 27/22 A3002 RMK A01 T02720215  RH  071%=      5-min Rain = 0
KST2 140727Z 03009KT 27/22 A3002 RMK A01 T02710215  RH  071%=      5-min Rain = 0
KST2 140728Z 03008KT 27/22 A3002 RMK A01 T02710215  RH  071%=      5-min Rain = 0
KST2 140729Z 03009KT 27/22 A3002 RMK A01 T02720215  RH  071%=      5-min Rain = 0
KST2 140730Z 03008KT 27/21 A3002 RMK A01 T02710214  RH  071%=      5-min Rain = 0
KST2 140731Z 03009KT 27/21 A3002 RMK A01 T02710214  RH  071%=      5-min Rain = 0
KST2 140732Z 03009KT 27/21 A3002 RMK A01 T02710214  RH  071%=      5-min Rain = 0
KST2 140733Z 04009KT 27/21 A3002 RMK A01 T02710214  RH  071%=      5-min Rain = 0
KST2 140734Z 03009KT 27/21 A3002 RMK A01 T02710214  RH  071%=      5-min Rain = 0
KST2 140735Z 03009KT 27/21 A3002 RMK A01 T02710213  RH  071%=      5-min Rain = 0
KST2 140736Z 03011KT 27/21 A3002 RMK A01 T02710213  RH  071%=      5-min Rain = 0
KST2 140737Z 03008KT 27/21 A3002 RMK A01 T02710213  RH  071%=      5-min Rain = 0
KST2 140738Z 03008KT 27/21 A3002 RMK A01 T02710213  RH  071%=      5-min Rain = 0
KST2 140739Z 03009KT 27/21 A3002 RMK A01 T02710213  RH  071%=      5-min Rain = 0
KST2 140740Z 02009KT 27/21 A3002 RMK A01 T02710214  RH  071%=      5-min Rain = 0
KST2 140741Z 03011KT 27/21 A3002 RMK A01 T02710214  RH  071%=      5-min Rain = 0
KST2 140742Z 03009KT 27/21 A3002 RMK A01 T02710214  RH  071%=      5-min Rain = 0
KST2 140743Z 02009KT 27/21 A3002 RMK A01 T02710214  RH  071%=      5-min Rain = 0
KST2 140744Z 03011KT 27/22 A3002 RMK A01 T02710215  RH  071%=      5-min Rain = 0
KST2 140745Z 03010KT 27/22 A3002 RMK A01 T02710215  RH  071%=      5-min Rain = 0
KST2 140746Z 03009KT 27/22 A3002 RMK A01 T02710215  RH  071%=      5-min Rain = 0
KST2 140747Z 03008KT 27/22 A3002 RMK A01 T02710215  RH  071%=      5-min Rain = 0
KST2 140748Z 04007KT 27/22 A3002 RMK A01 T02700215  RH  071%=      5-min Rain = 0
KST2 140749Z 04008KT 27/22 A3002 RMK A01 T02700215  RH  072%=      5-min Rain = 0
KST2 140750Z 04009KT 27/22 A3002 RMK A01 T02700215  RH  072%=      5-min Rain = 0
KST2 140751Z 04011KT 27/21 A3002 RMK A01 T02700214  RH  072%=      5-min Rain = 0
KST2 140752Z 04011KT 27/21 A3002 RMK A01 T02690214  RH  072%=      5-min Rain = 0
KST2 140753Z 04011KT 27/21 A3001 RMK A01 T02700214  RH  071%=      5-min Rain = 0
KST2 140754Z 04010KT 27/21 A3001 RMK A01 T02700214  RH  071%=      5-min Rain = 0
KST2 140755Z 04009KT 27/21 A3001 RMK A01 T02690213  RH  071%=      5-min Rain = 0
KST2 140756Z 04009KT 27/21 A3001 RMK A01 T02690213  RH  071%=      5-min Rain = 0
KST2 140757Z 04008KT 27/21 A3001 RMK A01 T02690213  RH  071%=      5-min Rain = 0
KST2 140758Z 04010KT 27/21 A3001 RMK A01 T02690213  RH  071%=      5-min Rain = 0
KST2 140759Z 04010KT 27/21 A3001 RMK A01 T02690213  RH  072%=      5-min Rain = 0
KST2 140800Z 04009KT 27/21 A3001 RMK A01 T02680212  RH  072%=      5-min Rain = 0
KST2 140801Z 04009KT 27/21 A3001 RMK A01 T02680212  RH  072%=      5-min Rain = 0
KST2 140802Z 05009KT 27/21 A3001 RMK A01 T02680212  RH  072%=      5-min Rain = 0
KST2 140803Z 04008KT 27/21 A3001 RMK A01 T02680212  RH  072%=      5-min Rain = 0
KST2 140804Z 05009KT 27/21 A3001 RMK A01 T02670212  RH  072%=      5-min Rain = 0
KST2 140805Z 05007KT 27/21 A3001 RMK A01 T02680212  RH  072%=      5-min Rain = 0
KST2 140806Z 05008KT 27/21 A3001 RMK A01 T02670212  RH  072%=      5-min Rain = 0
KST2 140807Z 05007KT 27/21 A3001 RMK A01 T02670211  RH  072%=      5-min Rain = 0
KST2 140808Z 05009KT 27/21 A30 RMK A01 T02670211  RH  072%=      5-min Rain = 0
KST2 140809Z 06007KT 27/21 A30 RMK A01 T02670211  RH  072%=      5-min Rain = 0
KST2 140810Z 05007KT 27/21 A30 RMK A01 T02670211  RH  072%=      5-min Rain = 0
KST2 140811Z 06007KT 27/21 A30 RMK A01 T02660211  RH  072%=      5-min Rain = 0
KST2 140812Z 06006KT 27/21 A30 RMK A01 T02660211  RH  072%=      5-min Rain = 0
KST2 140813Z 06006KT 27/21 A30 RMK A01 T02660211  RH  072%=      5-min Rain = 0
KST2 140814Z 06007KT 27/21 A30 RMK A01 T02660211  RH  072%=      5-min Rain = 0
KST2 140815Z 06008KT 27/21 A30 RMK A01 T02660211  RH  072%=      5-min Rain = 0
KST2 140816Z 05007KT 27/21 A30 RMK A01 T02650211  RH  072%=      5-min Rain = 0
KST2 140817Z 06007KT 27/21 A30 RMK A01 T02650211  RH  072%=      5-min Rain = 0
KST2 140818Z 05007KT 27/21 A30 RMK A01 T02660211  RH  072%=      5-min Rain = 0
KST2 140819Z 05006KT 27/21 A30 RMK A01 T02650210  RH  072%=      5-min Rain = 0
KST2 140820Z 05007KT 27/21 A30 RMK A01 T02650211  RH  072%=      5-min Rain = 0
KST2 140821Z 05007KT 26/21 A30 RMK A01 T02640210  RH  072%=      5-min Rain = 0
KST2 140822Z 04006KT 27/21 A30 RMK A01 T02650210  RH  072%=      5-min Rain = 0
KST2 140823Z 04007KT 26/21 A30 RMK A01 T02640210  RH  072%=      5-min Rain = 0
KST2 140824Z 04007KT 26/21 A30 RMK A01 T02640210  RH  072%=      5-min Rain = 0
KST2 140825Z 03007KT 26/21 A30 RMK A01 T02640210  RH  072%=      5-min Rain = 0
KST2 140826Z 04007KT 26/21 A3001 RMK A01 T02630210  RH  072%=      5-min Rain = 0
KST2 140827Z 03007KT 26/21 A3001 RMK A01 T02630210  RH  073%=      5-min Rain = 0
KST2 140828Z 03007KT 26/21 A3001 RMK A01 T02620210  RH  073%=      5-min Rain = 0
KST2 140829Z 03008KT 26/21 A3001 RMK A01 T02620210  RH  073%=      5-min Rain = 0
KST2 140830Z 03008KT 26/21 A3001 RMK A01 T02620210  RH  073%=      5-min Rain = 0
KST2 140831Z 03009KT 26/21 A3001 RMK A01 T02610210  RH  073%=      5-min Rain = 0
KST2 140832Z 03010KT 26/21 A3001 RMK A01 T02610210  RH  073%=      5-min Rain = 0
KST2 140833Z 03009KT 26/21 A3002 RMK A01 T02620211  RH  074%=      5-min Rain = 0
KST2 140834Z 03010KT 26/21 A3002 RMK A01 T02610211  RH  074%=      5-min Rain = 0
KST2 140835Z 03010KT 26/21 A3002 RMK A01 T02610211  RH  074%=      5-min Rain = 0
KST2 140836Z 02009KT 26/21 A3002 RMK A01 T02610211  RH  074%=      5-min Rain = 0
KST2 140837Z 02010KT 26/21 A3002 RMK A01 T02620211  RH  074%=      5-min Rain = 0
KST2 140838Z 02010KT 26/21 A3002 RMK A01 T02620211  RH  074%=      5-min Rain = 0
KST2 140839Z 02011KT 26/21 A3002 RMK A01 T02620211  RH  074%=      5-min Rain = 0
KST2 140840Z 02012KT 26/21 A3002 RMK A01 T02620212  RH  074%=      5-min Rain = 0
KST2 140841Z 03012KT 26/21 A3002 RMK A01 T02630212  RH  074%=      5-min Rain = 0
KST2 140842Z 03011KT 26/21 A3002 RMK A01 T02630213  RH  074%=      5-min Rain = 0
KST2 140843Z 03012KT 26/21 A3002 RMK A01 T02630213  RH  074%=      5-min Rain = 0
KST2 140844Z 03010KT 26/21 A3002 RMK A01 T02630213  RH  074%=      5-min Rain = 0
KST2 140845Z 03009KT 26/21 A3002 RMK A01 T02630214  RH  074%=      5-min Rain = 0
KST2 140846Z 03010KT 26/21 A3002 RMK A01 T02630214  RH  074%=      5-min Rain = 0
KST2 140847Z 03011KT 26/21 A3002 RMK A01 T02630214  RH  074%=      5-min Rain = 0
KST2 140848Z 03012KT 26/21 A3002 RMK A01 T02630214  RH  074%=      5-min Rain = 0
KST2 140849Z 03012KT 26/21 A3002 RMK A01 T02630214  RH  074%=      5-min Rain = 0
KST2 140850Z 03009KT 26/21 A3002 RMK A01 T02630213  RH  074%=      5-min Rain = 0
KST2 140851Z 03011KT 26/21 A3002 RMK A01 T02640214  RH  074%=      5-min Rain = 0
KST2 140852Z 04010KT 26/21 A3002 RMK A01 T02640214  RH  074%=      5-min Rain = 0
KST2 140853Z 04010KT 26/21 A3002 RMK A01 T02630213  RH  074%=      5-min Rain = 0
KST2 140854Z 04011KT 26/21 A3002 RMK A01 T02640214  RH  074%=      5-min Rain = 0
KST2 140855Z 04008KT 26/21 A3002 RMK A01 T02640214  RH  074%=      5-min Rain = 0
KST2 140856Z 04011KT 26/21 A3002 RMK A01 T02640214  RH  074%=      5-min Rain = 0
KST2 140857Z 04010KT 26/21 A3002 RMK A01 T02640213  RH  074%=      5-min Rain = 0
KST2 140858Z 04012KT 26/21 A3002 RMK A01 T02640213  RH  074%=      5-min Rain = 0
KST2 140859Z 04011KT 26/21 A3001 RMK A01 T02640213  RH  074%=      5-min Rain = 0
KST2 140900Z 04011KT 26/21 A3001 RMK A01 T02630212  RH  074%=      5-min Rain = 0
KST2 140901Z 04011KT 26/21 A3001 RMK A01 T02640213  RH  073%=      5-min Rain = 0
KST2 140902Z 05010KT 26/21 A3001 RMK A01 T02640212  RH  073%=      5-min Rain = 0
KST2 140903Z 05011KT 26/21 A3001 RMK A01 T02630212  RH  073%=      5-min Rain = 0
KST2 140904Z 05010KT 26/21 A3001 RMK A01 T02630212  RH  073%=      5-min Rain = 0
KST2 140905Z 05010KT 26/21 A3001 RMK A01 T02630211  RH  073%=      5-min Rain = 0
KST2 140906Z 05011KT 26/21 A3001 RMK A01 T02630211  RH  073%=      5-min Rain = 0
KST2 140907Z 04011KT 26/21 A3001 RMK A01 T02630211  RH  073%=      5-min Rain = 0
KST2 140908Z 04011KT 26/21 A3001 RMK A01 T02630211  RH  073%=      5-min Rain = 0
KST2 140909Z 04010KT 26/21 A3001 RMK A01 T02630211  RH  073%=      5-min Rain = 0
KST2 140910Z 04013KT 26/21 A3001 RMK A01 T02630211  RH  073%=      5-min Rain = 0
KST2 140911Z 04010KT 26/21 A3001 RMK A01 T02630211  RH  073%=      5-min Rain = 0
KST2 140912Z 03009KT 26/21 A3001 RMK A01 T02630211  RH  073%=      5-min Rain = 0
KST2 140913Z 04010KT 26/21 A3001 RMK A01 T02620211  RH  073%=      5-min Rain = 0
KST2 140914Z 03011KT 26/21 A3001 RMK A01 T02620211  RH  073%=      5-min Rain = 0
KST2 140915Z 03014KT 26/21 A3002 RMK A01 T02610210  RH  074%=      5-min Rain = 0
KST2 140916Z 03015KT 26/21 A3002 RMK A01 T02610211  RH  074%=      5-min Rain = 0
KST2 140917Z 03013KT 26/21 A3002 RMK A01 T02610211  RH  074%=      5-min Rain = 0
KST2 140918Z 04014KT 26/21 A3002 RMK A01 T02610211  RH  074%=      5-min Rain = 0
KST2 140919Z 04015KT 26/21 A3002 RMK A01 T02610210  RH  074%=      5-min Rain = 0
KST2 140920Z 03011KT 26/21 A3002 RMK A01 T02600210  RH  074%=      5-min Rain = 0
KST2 140921Z 04012KT 26/21 A3002 RMK A01 T02600210  RH  074%=      5-min Rain = 0
KST2 140922Z 04012KT 26/21 A3002 RMK A01 T02600210  RH  074%=      5-min Rain = 0
KST2 140923Z 04012KT 26/21 A3002 RMK A01 T02600210  RH  074%=      5-min Rain = 0
KST2 140924Z 04012KT 26/21 A3002 RMK A01 T02600210  RH  074%=      5-min Rain = 0
KST2 140925Z 04016KT 26/21 A3002 RMK A01 T02600210  RH  074%=      5-min Rain = 0
KST2 140926Z 04016KT 26/21 A3002 RMK A01 T02600210  RH  074%=      5-min Rain = 0
KST2 140927Z 04013KT 26/21 A3002 RMK A01 T02600210  RH  074%=      5-min Rain = 0
KST2 140928Z 04013G18KT 26/21 A3002 RMK A01 T02590210  RH  074%=      5-min Rain = 0
KST2 140929Z 04012KT 26/21 A3002 RMK A01 T02590210  RH  074%=      5-min Rain = 0
KST2 140930Z 04010KT 26/21 A3002 RMK A01 T02590210  RH  074%=      5-min Rain = 0
KST2 140931Z 04011KT 26/21 A3002 RMK A01 T02590210  RH  074%=      5-min Rain = 0
KST2 140932Z 04010KT 26/21 A3002 RMK A01 T02590209  RH  074%=      5-min Rain = 0
KST2 140933Z 04012G17KT 26/21 A3002 RMK A01 T02590209  RH  074%=      5-min Rain = 0
KST2 140934Z 04013KT 26/21 A3002 RMK A01 T02590209  RH  074%=      5-min Rain = 0
KST2 140935Z 04013KT 26/21 A3002 RMK A01 T02590210  RH  074%=      5-min Rain = 0
KST2 140936Z 04012KT 26/21 A3002 RMK A01 T02590209  RH  074%=      5-min Rain = 0
KST2 140937Z 04013KT 26/21 A3002 RMK A01 T02580209  RH  074%=      5-min Rain = 0
KST2 140938Z 04011KT 26/21 A3002 RMK A01 T02590209  RH  074%=      5-min Rain = 0
KST2 140939Z 05014KT 26/21 A3002 RMK A01 T02590209  RH  074%=      5-min Rain = 0
KST2 140940Z 04013KT 26/21 A3002 RMK A01 T02580209  RH  074%=      5-min Rain = 0
KST2 140941Z 04012KT 26/21 A3002 RMK A01 T02580209  RH  074%=      5-min Rain = 0
KST2 140942Z 04013KT 26/21 A3002 RMK A01 T02580209  RH  074%=      5-min Rain = 0
KST2 140943Z 04012KT 26/21 A3002 RMK A01 T02580209  RH  074%=      5-min Rain = 0
KST2 140944Z 04012KT 26/21 A3002 RMK A01 T02580209  RH  074%=      5-min Rain = 0
KST2 140945Z 04014KT 26/21 A3002 RMK A01 T02580209  RH  074%=      5-min Rain = 0
KST2 140946Z 04014KT 26/21 A3002 RMK A01 T02580210  RH  074%=      5-min Rain = 0
KST2 140947Z 04013KT 26/21 A3002 RMK A01 T02580209  RH  074%=      5-min Rain = 0
KST2 140948Z 04011KT 26/21 A3002 RMK A01 T02580209  RH  074%=      5-min Rain = 0
KST2 140949Z 04013KT 26/21 A3002 RMK A01 T02580209  RH  075%=      5-min Rain = 0
KST2 140950Z 04011KT 26/21 A3002 RMK A01 T02570209  RH  075%=      5-min Rain = 0
KST2 140951Z 04011G17KT 26/21 A3002 RMK A01 T02570209  RH  075%=      5-min Rain = 0
KST2 140952Z 04011KT 26/21 A3002 RMK A01 T02570209  RH  075%=      5-min Rain = 0
KST2 140953Z 04013KT 26/21 A3002 RMK A01 T02570209  RH  075%=      5-min Rain = 0
KST2 140954Z 04014KT 26/21 A3002 RMK A01 T02570209  RH  075%=      5-min Rain = 0
KST2 140955Z 04016KT 26/21 A3002 RMK A01 T02570209  RH  075%=      5-min Rain = 0
KST2 140956Z 04014KT 26/21 A3002 RMK A01 T02570209  RH  075%=      5-min Rain = 0
KST2 140957Z 04012KT 26/21 A3002 RMK A01 T02570209  RH  075%=      5-min Rain = 0
KST2 140958Z 04012G17KT 26/21 A3002 RMK A01 T02560209  RH  075%=      5-min Rain = 0
KST2 140959Z 04012KT 26/21 A3002 RMK A01 T02560209  RH  075%=      5-min Rain = 0
KST2 141000Z 05012KT 26/21 A3002 RMK A01 T02560209  RH  075%=      5-min Rain = 0
KST2 141001Z 04011KT 26/21 A3002 RMK A01 T02560209  RH  075%=      5-min Rain = 0
KST2 141002Z 05013KT 26/21 A3002 RMK A01 T02560209  RH  075%=      5-min Rain = 0
KST2 141003Z 04013KT 26/21 A3002 RMK A01 T02550209  RH  075%=      5-min Rain = 0
KST2 141004Z 04013KT 26/21 A3003 RMK A01 T02550209  RH  076%=      5-min Rain = 0
KST2 141005Z 04013G18KT 26/21 A3003 RMK A01 T02560210  RH  076%=      5-min Rain = 0
KST2 141006Z 04012KT 26/21 A3003 RMK A01 T02550210  RH  076%=      5-min Rain = 0
KST2 141007Z 05011KT 26/21 A3003 RMK A01 T02550210  RH  076%=      5-min Rain = 0
KST2 141008Z 05011KT 26/21 A3003 RMK A01 T02550210  RH  076%=      5-min Rain = 0
KST2 141009Z 05014KT 26/21 A3003 RMK A01 T02550210  RH  076%=      5-min Rain = 0
KST2 141010Z 05012KT 26/21 A3002 RMK A01 T02550210  RH  076%=      5-min Rain = 0
KST2 141011Z 05013KT 26/21 A3002 RMK A01 T02550210  RH  076%=      5-min Rain = 0
KST2 141012Z 05013KT 26/21 A3002 RMK A01 T02550211  RH  076%=      5-min Rain = 0
KST2 141013Z 05013KT 26/21 A3002 RMK A01 T02550211  RH  076%=      5-min Rain = 0
KST2 141014Z 05014KT 26/21 A3002 RMK A01 T02550211  RH  077%=      5-min Rain = 0
KST2 141015Z 05013KT 26/21 A3002 RMK A01 T02550211  RH  077%=      5-min Rain = 0
KST2 141016Z 05014KT 26/21 A3002 RMK A01 T02550211  RH  077%=      5-min Rain = 0
KST2 141017Z 06013KT 25/21 A3002 RMK A01 T02540211  RH  077%=      5-min Rain = 0
KST2 141018Z 05010KT 25/21 A3002 RMK A01 T02540211  RH  077%=      5-min Rain = 0
KST2 141019Z 06010KT 25/21 A3002 RMK A01 T02540211  RH  077%=      5-min Rain = 0
KST2 141020Z 06012KT 25/21 A3002 RMK A01 T02540211  RH  077%=      5-min Rain = 0
KST2 141021Z 05011KT 25/21 A3003 RMK A01 T02540211  RH  077%=      5-min Rain = 0
KST2 141022Z 05012KT 25/21 A3003 RMK A01 T02540211  RH  077%=      5-min Rain = 0
KST2 141023Z 05014KT 25/21 A3003 RMK A01 T02540212  RH  077%=      5-min Rain = 0
KST2 141024Z 06014KT 25/21 A3003 RMK A01 T02540212  RH  078%=      5-min Rain = 0
KST2 141025Z 05013KT 25/21 A3003 RMK A01 T02540212  RH  078%=      5-min Rain = 0
KST2 141026Z 05013KT 25/21 A3003 RMK A01 T02540213  RH  078%=      5-min Rain = 0
KST2 141027Z 05014KT 25/21 A3003 RMK A01 T02540213  RH  078%=      5-min Rain = 0
KST2 141028Z 05013KT 25/21 A3003 RMK A01 T02540213  RH  078%=      5-min Rain = 0
KST2 141029Z 05010KT 25/21 A3003 RMK A01 T02540213  RH  078%=      5-min Rain = 0
KST2 141030Z 05013KT 25/21 A3003 RMK A01 T02540213  RH  078%=      5-min Rain = 0
KST2 141031Z 05014KT 25/21 A3003 RMK A01 T02540213  RH  078%=      5-min Rain = 0
KST2 141032Z 05012G17KT 25/21 A3003 RMK A01 T02540213  RH  078%=      5-min Rain = 0
KST2 141033Z 05012KT 25/21 A3003 RMK A01 T02540213  RH  078%=      5-min Rain = 0
KST2 141034Z 05011KT 25/21 A3003 RMK A01 T02540213  RH  078%=      5-min Rain = 0
KST2 141035Z 06012KT 25/21 A3003 RMK A01 T02540213  RH  078%=      5-min Rain = 0
KST2 141036Z 05011KT 25/21 A3003 RMK A01 T02540214  RH  078%=      5-min Rain = 0
KST2 141037Z 05011KT 25/21 A3003 RMK A01 T02530213  RH  078%=      5-min Rain = 0
KST2 141038Z 05009KT 25/21 A3003 RMK A01 T02530214  RH  079%=      5-min Rain = 0
KST2 141039Z 05011KT 25/21 A3003 RMK A01 T02530213  RH  079%=      5-min Rain = 0
KST2 141040Z 05012KT 25/21 A3003 RMK A01 T02530214  RH  079%=      5-min Rain = 0
KST2 141041Z 05012KT 25/21 A3003 RMK A01 T02530214  RH  079%=      5-min Rain = 0
KST2 141042Z 05014KT 25/21 A3004 RMK A01 T02530214  RH  079%=      5-min Rain = 0
KST2 141043Z 05011KT 25/21 A3004 RMK A01 T02530214  RH  079%=      5-min Rain = 0
KST2 141044Z 05009KT 25/21 A3003 RMK A01 T02530214  RH  079%=      5-min Rain = 0
KST2 141045Z 05009KT 25/21 A3003 RMK A01 T02530214  RH  079%=      5-min Rain = 0
KST2 141046Z 05013KT 25/22 A3003 RMK A01 T02530215  RH  079%=      5-min Rain = 0
KST2 141047Z 06012KT 25/22 A3003 RMK A01 T02530215  RH  079%=      5-min Rain = 0
KST2 141048Z 06012KT 25/22 A3003 RMK A01 T02530215  RH  080%=      5-min Rain = 0
KST2 141049Z 06010KT 25/22 A3003 RMK A01 T02520215  RH  080%=      5-min Rain = 0
KST2 141050Z 05012KT 25/21 A3003 RMK A01 T02520214  RH  080%=      5-min Rain = 0
KST2 141051Z 05012KT 25/22 A3003 RMK A01 T02520215  RH  080%=      5-min Rain = 0
KST2 141052Z 05010KT 25/22 A3003 RMK A01 T02520215  RH  080%=      5-min Rain = 0
KST2 141053Z 06010KT 25/22 A3003 RMK A01 T02520215  RH  080%=      5-min Rain = 0
KST2 141054Z 05013KT 25/22 A3004 RMK A01 T02520215  RH  080%=      5-min Rain = 0
KST2 141055Z 06011KT 25/22 A3004 RMK A01 T02520215  RH  080%=      5-min Rain = 0
KST2 141056Z 05010KT 25/22 A3004 RMK A01 T02520215  RH  080%=      5-min Rain = 0
KST2 141057Z 05009G17KT 25/22 A3004 RMK A01 T02520215  RH  080%=      5-min Rain = 0
KST2 141058Z 05014KT 25/22 A3004 RMK A01 T02510215  RH  080%=      5-min Rain = 0
KST2 141059Z 05012KT 25/22 A3004 RMK A01 T02510215  RH  080%=      5-min Rain = 0
KST2 141100Z 05012KT 25/22 A3004 RMK A01 T02510215  RH  080%=      5-min Rain = 0
KST2 141101Z 05013KT 25/22 A3004 RMK A01 T02510216  RH  081%=      5-min Rain = 0
KST2 141102Z 06013KT 25/22 A3004 RMK A01 T02510216  RH  081%=      5-min Rain = 0
KST2 141103Z 06012KT 25/22 A3004 RMK A01 T02510216  RH  081%=      5-min Rain = 0
KST2 141104Z 05012KT 25/22 A3004 RMK A01 T02510216  RH  081%=      5-min Rain = 0
KST2 141105Z 05012KT 25/22 A3004 RMK A01 T02510216  RH  081%=      5-min Rain = 0
KST2 141106Z 05010KT 25/22 A3004 RMK A01 T02510215  RH  081%=      5-min Rain = 0
KST2 141107Z 05010KT 25/22 A3004 RMK A01 T02510216  RH  081%=      5-min Rain = 0
KST2 141108Z 05010KT 25/22 A3004 RMK A01 T02500215  RH  081%=      5-min Rain = 0
KST2 141109Z 05011KT 25/22 A3004 RMK A01 T02500216  RH  081%=      5-min Rain = 0
KST2 141110Z 05010KT 25/22 A3004 RMK A01 T02500216  RH  081%=      5-min Rain = 0
KST2 141111Z 04010KT 25/22 A3004 RMK A01 T02500216  RH  081%=      5-min Rain = 0
KST2 141112Z 05010KT 25/22 A3004 RMK A01 T02500215  RH  081%=      5-min Rain = 0
KST2 141113Z 05011G16KT 25/22 A3004 RMK A01 T02500216  RH  081%=      5-min Rain = 0
KST2 141114Z 05010KT 25/22 A3004 RMK A01 T02500216  RH  081%=      5-min Rain = 0
KST2 141115Z 05010KT 25/22 A3004 RMK A01 T02500216  RH  081%=      5-min Rain = 0
KST2 141116Z 05012KT 25/22 A3004 RMK A01 T02500216  RH  081%=      5-min Rain = 0
KST2 141117Z 05014KT 25/22 A3004 RMK A01 T02490216  RH  082%=      5-min Rain = 0
KST2 141118Z 05011KT 25/22 A3004 RMK A01 T02490216  RH  082%=      5-min Rain = 0
KST2 141119Z 05010KT 25/22 A3005 RMK A01 T02490216  RH  082%=      5-min Rain = 0
KST2 141120Z 05010KT 25/22 A3005 RMK A01 T02490216  RH  082%=      5-min Rain = 0
KST2 141121Z 05012KT 25/22 A3005 RMK A01 T02490216  RH  082%=      5-min Rain = 0
KST2 141122Z 05009KT 25/22 A3005 RMK A01 T02490216  RH  082%=      5-min Rain = 0
KST2 141123Z 05010KT 25/22 A3005 RMK A01 T02490216  RH  082%=      5-min Rain = 0
KST2 141124Z 05009KT 25/22 A3005 RMK A01 T02490216  RH  082%=      5-min Rain = 0
KST2 141125Z 05010KT 25/22 A3005 RMK A01 T02490216  RH  082%=      5-min Rain = 0
KST2 141126Z 05011KT 25/22 A3005 RMK A01 T02480216  RH  082%=      5-min Rain = 0
KST2 141127Z 05012KT 25/22 A3005 RMK A01 T02490216  RH  082%=      5-min Rain = 0
KST2 141128Z 05010KT 25/22 A3005 RMK A01 T02480216  RH  082%=      5-min Rain = 0
KST2 141129Z 06010KT 25/22 A3005 RMK A01 T02480216  RH  082%=      5-min Rain = 0
KST2 141130Z 06009KT 25/22 A3005 RMK A01 T02480216  RH  082%=      5-min Rain = 0
KST2 141131Z 06008KT 25/22 A3005 RMK A01 T02480216  RH  082%=      5-min Rain = 0
KST2 141132Z 06010KT 25/22 A3005 RMK A01 T02480216  RH  082%=      5-min Rain = 0
KST2 141133Z 06010KT 25/22 A3005 RMK A01 T02480216  RH  082%=      5-min Rain = 0
KST2 141134Z 06010KT 25/22 A3005 RMK A01 T02480216  RH  082%=      5-min Rain = 0
KST2 141135Z 06009KT 25/22 A3005 RMK A01 T02480216  RH  082%=      5-min Rain = 0
KST2 141136Z 05009KT 25/22 A3005 RMK A01 T02480216  RH  082%=      5-min Rain = 0
KST2 141137Z 06007KT 25/22 A3005 RMK A01 T02480216  RH  082%=      5-min Rain = 0
KST2 141138Z 06008KT 25/22 A3005 RMK A01 T02480215  RH  082%=      5-min Rain = 0
KST2 141139Z 06009KT 25/22 A3005 RMK A01 T02470216  RH  082%=      5-min Rain = 0
KST2 141140Z 07009KT 25/22 A3005 RMK A01 T02480216  RH  082%=      5-min Rain = 0
KST2 141141Z 06009KT 25/22 A3005 RMK A01 T02470215  RH  082%=      5-min Rain = 0
KST2 141142Z 05009KT 25/22 A3005 RMK A01 T02470216  RH  083%=      5-min Rain = 0
KST2 141143Z 06009KT 25/22 A3005 RMK A01 T02470215  RH  083%=      5-min Rain = 0
KST2 141144Z 05009KT 25/22 A3005 RMK A01 T02470215  RH  083%=      5-min Rain = 0
KST2 141145Z 06009KT 25/22 A3005 RMK A01 T02470215  RH  083%=      5-min Rain = 0
KST2 141146Z 05010KT 25/22 A3005 RMK A01 T02470215  RH  083%=      5-min Rain = 0
KST2 141147Z 05009KT 25/22 A3005 RMK A01 T02470215  RH  083%=      5-min Rain = 0
KST2 141148Z 06010KT 25/22 A3005 RMK A01 T02470215  RH  083%=      5-min Rain = 0
KST2 141149Z 05009KT 25/22 A3005 RMK A01 T02470215  RH  083%=      5-min Rain = 0
KST2 141150Z 05009KT 25/22 A3005 RMK A01 T02470215  RH  083%=      5-min Rain = 0
KST2 141151Z 05011KT 25/22 A3005 RMK A01 T02460215  RH  083%=      5-min Rain = 0
KST2 141152Z 05009KT 25/22 A3006 RMK A01 T02470216  RH  083%=      5-min Rain = 0
KST2 141153Z 05010KT 25/22 A3006 RMK A01 T02460215  RH  083%=      5-min Rain = 0
KST2 141154Z 05009KT 25/22 A3006 RMK A01 T02460215  RH  083%=      5-min Rain = 0
KST2 141155Z 06008KT 25/22 A3006 RMK A01 T02460215  RH  083%=      5-min Rain = 0
KST2 141156Z 05010KT 25/22 A3006 RMK A01 T02460215  RH  083%=      5-min Rain = 0
KST2 141157Z 05011KT 25/22 A3006 RMK A01 T02460215  RH  083%=      5-min Rain = 0
KST2 141158Z 05010KT 25/22 A3006 RMK A01 T02460215  RH  083%=      5-min Rain = 0
KST2 141159Z 05011KT 25/22 A3006 RMK A01 T02460215  RH  083%=      5-min Rain = 0
KST2 141200Z 05010KT 25/22 A3006 RMK A01 T02460215  RH  083%=      5-min Rain = 0
KST2 141201Z 05009KT 25/22 A3006 RMK A01 T02460215  RH  083%=      5-min Rain = 0
KST2 141202Z 05010KT 25/22 A3006 RMK A01 T02460215  RH  083%=      5-min Rain = 0
KST2 141203Z 05009KT 25/22 A3006 RMK A01 T02460215  RH  083%=      5-min Rain = 0
KST2 141204Z 05012KT 25/22 A3006 RMK A01 T02460215  RH  083%=      5-min Rain = 0
KST2 141205Z 05010KT 25/22 A3006 RMK A01 T02460215  RH  083%=      5-min Rain = 0
KST2 141206Z 04010KT 25/21 A3006 RMK A01 T02460214  RH  083%=      5-min Rain = 0
KST2 141207Z 05009G14KT 25/22 A3006 RMK A01 T02460215  RH  083%=      5-min Rain = 0
KST2 141208Z 05010KT 25/22 A3006 RMK A01 T02460215  RH  083%=      5-min Rain = 0
KST2 141209Z 05007KT 25/22 A3006 RMK A01 T02460215  RH  083%=      5-min Rain = 0
KST2 141210Z 06011KT 25/21 A3006 RMK A01 T02450214  RH  083%=      5-min Rain = 0
KST2 141211Z 05009KT 25/22 A3006 RMK A01 T02450215  RH  083%=      5-min Rain = 0
KST2 141212Z 05008KT 25/21 A3006 RMK A01 T02450214  RH  083%=      5-min Rain = 0
KST2 141213Z 05013KT 25/22 A3006 RMK A01 T02450215  RH  083%=      5-min Rain = 0
KST2 141214Z 05012KT 25/22 A3006 RMK A01 T02450215  RH  083%=      5-min Rain = 0
KST2 141215Z 05008KT 25/22 A3006 RMK A01 T02450215  RH  083%=      5-min Rain = 0
KST2 141216Z 05009KT 25/22 A3006 RMK A01 T02450215  RH  083%=      5-min Rain = 0
KST2 141217Z 04011KT 25/22 A3007 RMK A01 T02450215  RH  083%=      5-min Rain = 0
KST2 141218Z 05010KT 25/22 A3007 RMK A01 T02450215  RH  083%=      5-min Rain = 0
KST2 141219Z 05010KT 25/22 A3007 RMK A01 T02450215  RH  083%=      5-min Rain = 0
KST2 141220Z 05009KT 25/22 A3007 RMK A01 T02450215  RH  083%=      5-min Rain = 0
KST2 141221Z 05011KT 25/22 A3007 RMK A01 T02450215  RH  083%=      5-min Rain = 0
KST2 141222Z 05009KT 25/22 A3007 RMK A01 T02450215  RH  083%=      5-min Rain = 0
KST2 141223Z 06010KT 25/22 A3007 RMK A01 T02450215  RH  083%=      5-min Rain = 0
KST2 141224Z 06011KT 25/22 A3007 RMK A01 T02450215  RH  083%=      5-min Rain = 0
KST2 141225Z 06010KT 25/22 A3007 RMK A01 T02450215  RH  083%=      5-min Rain = 0
KST2 141226Z 05011KT 25/22 A3007 RMK A01 T02450215  RH  083%=      5-min Rain = 0
KST2 141227Z 05013KT 25/22 A3007 RMK A01 T02450215  RH  083%=      5-min Rain = 0
KST2 141228Z 05011KT 25/22 A3007 RMK A01 T02450215  RH  083%=      5-min Rain = 0
KST2 141229Z 05009KT 25/22 A3007 RMK A01 T02450215  RH  083%=      5-min Rain = 0
KST2 141230Z 06011KT 25/22 A3007 RMK A01 T02450215  RH  083%=      5-min Rain = 0
KST2 141231Z 06010KT 25/22 A3007 RMK A01 T02450215  RH  083%=      5-min Rain = 0
KST2 141232Z 05009KT 25/22 A3007 RMK A01 T02450215  RH  083%=      5-min Rain = 0
KST2 141233Z 05008KT 25/22 A3007 RMK A01 T02450215  RH  083%=      5-min Rain = 0
KST2 141234Z 05010KT 25/22 A3007 RMK A01 T02450215  RH  083%=      5-min Rain = 0
KST2 141235Z 05009KT 25/22 A3007 RMK A01 T02450215  RH  083%=      5-min Rain = 0
KST2 141236Z 05012KT 25/22 A3007 RMK A01 T02450215  RH  083%=      5-min Rain = 0
KST2 141237Z 05011KT 25/22 A3007 RMK A01 T02460215  RH  083%=      5-min Rain = 0
KST2 141238Z 04010KT 25/22 A3007 RMK A01 T02460215  RH  083%=      5-min Rain = 0
KST2 141239Z 05009KT 25/22 A3007 RMK A01 T02460215  RH  083%=      5-min Rain = 0
KST2 141240Z 05012KT 25/22 A3007 RMK A01 T02460215  RH  083%=      5-min Rain = 0
KST2 141241Z 05011KT 25/22 A3007 RMK A01 T02460215  RH  083%=      5-min Rain = 0
KST2 141242Z 05011KT 25/22 A3007 RMK A01 T02460215  RH  083%=      5-min Rain = 0
KST2 141243Z 05010KT 25/22 A3007 RMK A01 T02460215  RH  083%=      5-min Rain = 0
KST2 141244Z 05009KT 25/22 A3007 RMK A01 T02460215  RH  083%=      5-min Rain = 0
KST2 141245Z 06010KT 25/22 A3007 RMK A01 T02470215  RH  083%=      5-min Rain = 0
KST2 141246Z 05010KT 25/22 A3007 RMK A01 T02470215  RH  083%=      5-min Rain = 0
KST2 141247Z 05011KT 25/22 A3007 RMK A01 T02470215  RH  083%=      5-min Rain = 0
KST2 141248Z 05009KT 25/22 A3007 RMK A01 T02470215  RH  083%=      5-min Rain = 0
KST2 141249Z 05009KT 25/22 A3007 RMK A01 T02470215  RH  083%=      5-min Rain = 0
KST2 141250Z 04009KT 25/22 A3007 RMK A01 T02470216  RH  083%=      5-min Rain = 0
KST2 141251Z 04009KT 25/22 A3007 RMK A01 T02470216  RH  083%=      5-min Rain = 0
KST2 141252Z 05011KT 25/22 A3008 RMK A01 T02470216  RH  083%=      5-min Rain = 0
KST2 141253Z 04011KT 25/22 A3008 RMK A01 T02470216  RH  083%=      5-min Rain = 0
KST2 141254Z 04011KT 25/22 A3008 RMK A01 T02480217  RH  083%=      5-min Rain = 0
KST2 141255Z 04013KT 25/22 A3008 RMK A01 T02480217  RH  083%=      5-min Rain = 0
KST2 141256Z 05010KT 25/22 A3008 RMK A01 T02470216  RH  083%=      5-min Rain = 0
KST2 141257Z 05009KT 25/22 A3008 RMK A01 T02480217  RH  083%=      5-min Rain = 0
KST2 141258Z 05011KT 25/22 A3008 RMK A01 T02480217  RH  083%=      5-min Rain = 0
KST2 141259Z 04010KT 25/22 A3008 RMK A01 T02480217  RH  083%=      5-min Rain = 0
KST2 141300Z 05011KT 25/22 A3008 RMK A01 T02480217  RH  083%=      5-min Rain = 0
KST2 141301Z 05011KT 25/22 A3008 RMK A01 T02480217  RH  083%=      5-min Rain = 0
KST2 141302Z 04011KT 25/22 A3008 RMK A01 T02480217  RH  083%=      5-min Rain = 0
KST2 141303Z 05012KT 25/22 A3008 RMK A01 T02480217  RH  083%=      5-min Rain = 0
KST2 141304Z 04012KT 25/22 A3008 RMK A01 T02490217  RH  083%=      5-min Rain = 0
KST2 141305Z 05013KT 25/22 A3008 RMK A01 T02490217  RH  083%=      5-min Rain = 0
KST2 141306Z 05011KT 25/22 A3008 RMK A01 T02480217  RH  083%=      5-min Rain = 0
KST2 141307Z 04008KT 25/22 A3008 RMK A01 T02490217  RH  083%=      5-min Rain = 0
KST2 141308Z 05011KT 25/22 A3008 RMK A01 T02490218  RH  083%=      5-min Rain = 0
KST2 141309Z 05011KT 25/22 A3008 RMK A01 T02490218  RH  083%=      5-min Rain = 0
KST2 141310Z 05011KT 25/22 A3008 RMK A01 T02490218  RH  083%=      5-min Rain = 0
KST2 141311Z 05011KT 25/22 A3008 RMK A01 T02490218  RH  083%=      5-min Rain = 0
KST2 141312Z 05011KT 25/22 A3008 RMK A01 T02500217  RH  082%=      5-min Rain = 0
KST2 141313Z 04013KT 25/22 A3008 RMK A01 T02500217  RH  082%=      5-min Rain = 0
KST2 141314Z 05012KT 25/22 A3008 RMK A01 T02500217  RH  082%=      5-min Rain = 0
KST2 141315Z 05013KT 25/22 A3008 RMK A01 T02500217  RH  082%=      5-min Rain = 0
KST2 141316Z 05010KT 25/22 A3008 RMK A01 T02500217  RH  082%=      5-min Rain = 0
KST2 141317Z 05011KT 25/22 A3009 RMK A01 T02500218  RH  082%=      5-min Rain = 0
KST2 141318Z 06010KT 25/22 A3009 RMK A01 T02510217  RH  082%=      5-min Rain = 0
KST2 141319Z 04009KT 25/22 A3009 RMK A01 T02510218  RH  082%=      5-min Rain = 0
KST2 141320Z 04011KT 25/22 A3009 RMK A01 T02520218  RH  082%=      5-min Rain = 0
KST2 141321Z 05010KT 25/22 A3009 RMK A01 T02520218  RH  081%=      5-min Rain = 0
KST2 141322Z 05010KT 25/22 A3009 RMK A01 T02530217  RH  081%=      5-min Rain = 0
KST2 141323Z 05008KT 25/22 A3009 RMK A01 T02530217  RH  081%=      5-min Rain = 0
KST2 141324Z 05010KT 25/22 A3009 RMK A01 T02530218  RH  081%=      5-min Rain = 0
KST2 141325Z 05014KT 25/22 A3009 RMK A01 T02540217  RH  080%=      5-min Rain = 0
KST2 141326Z 06012KT 25/22 A3009 RMK A01 T02540216  RH  080%=      5-min Rain = 0
KST2 141327Z 06012KT 25/22 A3009 RMK A01 T02540216  RH  080%=      5-min Rain = 0
KST2 141328Z 06011KT 25/22 A3009 RMK A01 T02530216  RH  080%=      5-min Rain = 0
KST2 141329Z 05010KT 25/22 A3009 RMK A01 T02540216  RH  080%=      5-min Rain = 0
KST2 141330Z 05010KT 25/22 A3009 RMK A01 T02540216  RH  079%=      5-min Rain = 0
KST2 141331Z 05010KT 26/22 A3009 RMK A01 T02550216  RH  079%=      5-min Rain = 0
KST2 141332Z 04013KT 26/22 A3009 RMK A01 T02550216  RH  079%=      5-min Rain = 0
KST2 141333Z 05009KT 26/22 A3009 RMK A01 T02550215  RH  079%=      5-min Rain = 0
KST2 141334Z 06012KT 26/22 A3009 RMK A01 T02550216  RH  079%=      5-min Rain = 0
KST2 141335Z 06010KT 26/22 A3009 RMK A01 T02560216  RH  078%=      5-min Rain = 0
KST2 141336Z 05009KT 26/22 A3009 RMK A01 T02560216  RH  079%=      5-min Rain = 0
KST2 141337Z 06010KT 26/22 A3009 RMK A01 T02560217  RH  079%=      5-min Rain = 0
KST2 141338Z 07011KT 26/22 A3009 RMK A01 T02570216  RH  078%=      5-min Rain = 0
KST2 141339Z 06010KT 26/22 A3009 RMK A01 T02570216  RH  078%=      5-min Rain = 0
KST2 141340Z 06009KT 26/22 A3009 RMK A01 T02570216  RH  078%=      5-min Rain = 0
KST2 141341Z 05008KT 26/22 A3009 RMK A01 T02570217  RH  078%=      5-min Rain = 0
KST2 141342Z 05009KT 26/22 A3009 RMK A01 T02580217  RH  078%=      5-min Rain = 0
KST2 141343Z 06013KT 26/22 A3009 RMK A01 T02590217  RH  077%=      5-min Rain = 0
KST2 141344Z 06013KT 26/22 A3009 RMK A01 T02590215  RH  077%=      5-min Rain = 0
KST2 141345Z 06011KT 26/22 A3009 RMK A01 T02580215  RH  077%=      5-min Rain = 0
KST2 141346Z 06011G16KT 26/22 A3009 RMK A01 T02570215  RH  078%=      5-min Rain = 0
KST2 141347Z 06013KT 26/22 A301 RMK A01 T02580215  RH  077%=      5-min Rain = 0
KST2 141348Z 05011KT 26/22 A301 RMK A01 T02580215  RH  077%=      5-min Rain = 0
KST2 141349Z 05011KT 26/22 A301 RMK A01 T02580215  RH  077%=      5-min Rain = 0
KST2 141350Z 05009KT 26/22 A301 RMK A01 T02590216  RH  077%=      5-min Rain = 0
KST2 141351Z 04011KT 26/22 A301 RMK A01 T02600216  RH  077%=      5-min Rain = 0
KST2 141352Z 04010KT 26/22 A301 RMK A01 T02610216  RH  076%=      5-min Rain = 0
KST2 141353Z 06011KT 26/22 A301 RMK A01 T02600216  RH  076%=      5-min Rain = 0
KST2 141354Z 06011KT 26/22 A301 RMK A01 T02600215  RH  076%=      5-min Rain = 0
KST2 141355Z 06013KT 26/22 A301 RMK A01 T02600216  RH  076%=      5-min Rain = 0
KST2 141356Z 06011KT 26/22 A301 RMK A01 T02600215  RH  076%=      5-min Rain = 0
KST2 141357Z 06008KT 26/22 A301 RMK A01 T02600215  RH  076%=      5-min Rain = 0
KST2 141358Z 05009KT 26/22 A301 RMK A01 T02600215  RH  076%=      5-min Rain = 0
KST2 141359Z 06010G15KT 26/22 A301 RMK A01 T02610217  RH  076%=      5-min Rain = 0
KST2 141400Z 05012KT 26/22 A301 RMK A01 T02630216  RH  076%=      5-min Rain = 0
KST2 141401Z 05010KT 26/22 A301 RMK A01 T02630216  RH  075%=      5-min Rain = 0
KST2 141402Z 05010KT 26/22 A3011 RMK A01 T02630216  RH  075%=      5-min Rain = 0
KST2 141403Z 04009KT 26/22 A3011 RMK A01 T02630216  RH  075%=      5-min Rain = 0
KST2 141404Z 05008KT 26/22 A3011 RMK A01 T02640217  RH  075%=      5-min Rain = 0
KST2 141405Z 04009KT 27/22 A3011 RMK A01 T02660218  RH  075%=      5-min Rain = 0
KST2 141406Z 06010KT 27/22 A3011 RMK A01 T02660217  RH  074%=      5-min Rain = 0
KST2 141407Z 06011KT 27/22 A3011 RMK A01 T02660216  RH  074%=      5-min Rain = 0
KST2 141408Z 05009KT 27/22 A3011 RMK A01 T02660216  RH  074%=      5-min Rain = 0
KST2 141409Z 05013KT 27/22 A3011 RMK A01 T02660216  RH  074%=      5-min Rain = 0
KST2 141410Z 05011KT 27/22 A3011 RMK A01 T02660215  RH  074%=      5-min Rain = 0
KST2 141411Z 05011KT 27/21 A3011 RMK A01 T02650214  RH  074%=      5-min Rain = 0
KST2 141412Z 07010KT 27/21 A3011 RMK A01 T02650214  RH  074%=      5-min Rain = 0
KST2 141413Z 07009KT 26/22 A3011 RMK A01 T02640215  RH  074%=      5-min Rain = 0
KST2 141414Z 05012KT 27/22 A3011 RMK A01 T02650215  RH  074%=      5-min Rain = 0
KST2 141415Z 05014KT 27/21 A3011 RMK A01 T02660214  RH  073%=      5-min Rain = 0
KST2 141416Z 05014KT 27/21 A3011 RMK A01 T02660213  RH  073%=      5-min Rain = 0
KST2 141417Z 07012KT 27/21 A3011 RMK A01 T02670213  RH  072%=      5-min Rain = 0
KST2 141418Z 06010KT 27/21 A3011 RMK A01 T02670213  RH  072%=      5-min Rain = 0
KST2 141419Z 05011KT 27/21 A3011 RMK A01 T02670214  RH  073%=      5-min Rain = 0
KST2 141420Z 04010KT 27/21 A3012 RMK A01 T02680213  RH  072%=      5-min Rain = 0
KST2 141421Z 05010KT 27/21 A3012 RMK A01 T02680214  RH  072%=      5-min Rain = 0
KST2 141422Z 06010KT 27/21 A3012 RMK A01 T02680214  RH  072%=      5-min Rain = 0
KST2 141423Z 05012KT 27/22 A3012 RMK A01 T02700215  RH  072%=      5-min Rain = 0
KST2 141424Z 05013KT 27/21 A3012 RMK A01 T02700214  RH  071%=      5-min Rain = 0
KST2 141425Z 06010KT 27/21 A3012 RMK A01 T02710214  RH  071%=      5-min Rain = 0
KST2 141426Z 06009KT 27/21 A3012 RMK A01 T02710214  RH  071%=      5-min Rain = 0
KST2 141427Z 05010KT 27/21 A3012 RMK A01 T02710214  RH  071%=      5-min Rain = 0
KST2 141428Z 05008KT 27/22 A3012 RMK A01 T02710215  RH  072%=      5-min Rain = 0
KST2 141429Z 05009KT 27/22 A3012 RMK A01 T02720215  RH  071%=      5-min Rain = 0
KST2 141430Z 05009KT 27/22 A3012 RMK A01 T02720215  RH  071%=      5-min Rain = 0
KST2 141431Z 04011KT 27/22 A3012 RMK A01 T02730217  RH  071%=      5-min Rain = 0
KST2 141432Z 04012KT 27/22 A3012 RMK A01 T02730215  RH  070%=      5-min Rain = 0
KST2 141433Z 06008KT 27/22 A3012 RMK A01 T02730216  RH  071%=      5-min Rain = 0
KST2 141434Z 05008KT 27/22 A3012 RMK A01 T02730215  RH  071%=      5-min Rain = 0
KST2 141435Z 05011KT 27/22 A3012 RMK A01 T02730216  RH  071%=      5-min Rain = 0
KST2 141436Z 06010KT 27/22 A3012 RMK A01 T02740216  RH  071%=      5-min Rain = 0
KST2 141437Z 06013KT 27/22 A3012 RMK A01 T02740216  RH  071%=      5-min Rain = 0
KST2 141438Z 06011KT 27/22 A3012 RMK A01 T02730215  RH  070%=      5-min Rain = 0
KST2 141439Z 06009KT 27/22 A3012 RMK A01 T02730215  RH  070%=      5-min Rain = 0
KST2 141440Z 05006KT 27/22 A3012 RMK A01 T02730215  RH  071%=      5-min Rain = 0
KST2 141441Z 04008KT 27/22 A3012 RMK A01 T02730217  RH  071%=      5-min Rain = 0
KST2 141442Z 04010KT 27/22 A3012 RMK A01 T02740218  RH  071%=      5-min Rain = 0
KST2 141443Z 03009KT 28/22 A3012 RMK A01 T02750217  RH  070%=      5-min Rain = 0
KST2 141444Z 03009KT 28/22 A3012 RMK A01 T02750216  RH  070%=      5-min Rain = 0
KST2 141445Z 02009KT 27/22 A3012 RMK A01 T02730216  RH  071%=      5-min Rain = 0
KST2 141446Z 01009KT 27/22 A3012 RMK A01 T02740218  RH  072%=      5-min Rain = 0
KST2 141447Z 01010KT 28/22 A3012 RMK A01 T02750219  RH  072%=      5-min Rain = 0
KST2 141448Z 02010KT 28/22 A3012 RMK A01 T02750220  RH  072%=      5-min Rain = 0
KST2 141449Z 03010KT 28/22 A3012 RMK A01 T02750218  RH  071%=      5-min Rain = 0
KST2 141450Z 02008KT 28/22 A3013 RMK A01 T02750218  RH  071%=      5-min Rain = 0
KST2 141451Z 02009KT 27/22 A3013 RMK A01 T02740217  RH  071%=      5-min Rain = 0
KST2 141452Z 02009KT 27/22 A3013 RMK A01 T02730217  RH  072%=      5-min Rain = 0
KST2 141453Z 04008KT 27/22 A3013 RMK A01 T02720218  RH  072%=      5-min Rain = 0
KST2 141454Z 04009KT 27/22 A3013 RMK A01 T02720218  RH  072%=      5-min Rain = 0
KST2 141455Z 06009KT 27/22 A3012 RMK A01 T02730218  RH  072%=      5-min Rain = 0
KST2 141456Z 05010KT 27/22 A3012 RMK A01 T02740217  RH  071%=      5-min Rain = 0
KST2 141457Z 05009KT 28/22 A3013 RMK A01 T02750217  RH  071%=      5-min Rain = 0
KST2 141458Z 04009KT 28/22 A3013 RMK A01 T02760218  RH  071%=      5-min Rain = 0
KST2 141459Z 04008KT 28/22 A3013 RMK A01 T02760218  RH  071%=      5-min Rain = 0
KST2 141500Z 04007KT 28/22 A3013 RMK A01 T02760218  RH  071%=      5-min Rain = 0
KST2 141501Z 04012KT 28/22 A3013 RMK A01 T02770218  RH  070%=      5-min Rain = 0
KST2 141502Z 04009KT 28/22 A3013 RMK A01 T02780217  RH  069%=      5-min Rain = 0
KST2 141503Z 04007KT 28/22 A3013 RMK A01 T02770216  RH  070%=      5-min Rain = 0
KST2 141504Z 04006KT 28/22 A3013 RMK A01 T02770217  RH  070%=      5-min Rain = 0
KST2 141505Z 05009KT 28/22 A3013 RMK A01 T02770217  RH  070%=      5-min Rain = 0
KST2 141506Z 05011KT 28/22 A3013 RMK A01 T02780216  RH  069%=      5-min Rain = 0
KST2 141507Z 03009KT 28/22 A3013 RMK A01 T02780216  RH  069%=      5-min Rain = 0
KST2 141508Z 03011KT 28/22 A3013 RMK A01 T02770215  RH  069%=      5-min Rain = 0
KST2 141509Z 03008KT 28/22 A3013 RMK A01 T02770215  RH  069%=      5-min Rain = 0
KST2 141510Z 04008KT 28/22 A3013 RMK A01 T02770216  RH  069%=      5-min Rain = 0
KST2 141511Z 04007KT 28/22 A3013 RMK A01 T02770216  RH  069%=      5-min Rain = 0
KST2 141512Z 04009KT 28/22 A3013 RMK A01 T02770217  RH  070%=      5-min Rain = 0
KST2 141513Z 04009KT 28/22 A3013 RMK A01 T02790216  RH  068%=      5-min Rain = 0
KST2 141514Z 05010KT 28/22 A3013 RMK A01 T02800216  RH  068%=      5-min Rain = 0
KST2 141515Z 05010KT 28/22 A3013 RMK A01 T02800216  RH  068%=      5-min Rain = 0
KST2 141516Z 04008KT 28/22 A3013 RMK A01 T02790216  RH  068%=      5-min Rain = 0
KST2 141517Z 03006KT 28/22 A3013 RMK A01 T02790215  RH  068%=      5-min Rain = 0
KST2 141518Z 03008KT 28/22 A3013 RMK A01 T02780215  RH  069%=      5-min Rain = 0
KST2 141519Z 05011KT 28/22 A3013 RMK A01 T02780215  RH  069%=      5-min Rain = 0
KST2 141520Z 05011KT 28/22 A3013 RMK A01 T02790215  RH  068%=      5-min Rain = 0
KST2 141521Z 04009KT 28/22 A3013 RMK A01 T02800215  RH  068%=      5-min Rain = 0
KST2 141522Z 04008KT 28/22 A3013 RMK A01 T02800215  RH  068%=      5-min Rain = 0
KST2 141523Z 03006KT 28/22 A3013 RMK A01 T02800215  RH  068%=      5-min Rain = 0
KST2 141524Z 04009KT 28/22 A3013 RMK A01 T02820216  RH  067%=      5-min Rain = 0
KST2 141525Z 05011KT 28/22 A3013 RMK A01 T02830215  RH  067%=      5-min Rain = 0
KST2 141526Z 05010KT 28/22 A3013 RMK A01 T02830215  RH  066%=      5-min Rain = 0
KST2 141527Z 05009KT 28/22 A3012 RMK A01 T02840215  RH  066%=      5-min Rain = 0
KST2 141528Z 05008KT 28/22 A3012 RMK A01 T02830215  RH  066%=      5-min Rain = 0
KST2 141529Z 07007KT 28/21 A3012 RMK A01 T02830214  RH  066%=      5-min Rain = 0
KST2 141530Z 06007KT 28/21 A3012 RMK A01 T02840214  RH  066%=      5-min Rain = 0
KST2 141531Z 04007KT 28/21 A3012 RMK A01 T02840214  RH  066%=      5-min Rain = 0
KST2 141532Z 03009KT 28/21 A3012 RMK A01 T02840214  RH  066%=      5-min Rain = 0
KST2 141533Z 04009KT 28/21 A3012 RMK A01 T02840214  RH  066%=      5-min Rain = 0
KST2 141534Z 03008KT 29/21 A3013 RMK A01 T02850214  RH  065%=      5-min Rain = 0
KST2 141535Z 01004KT 29/21 A3012 RMK A01 T02850213  RH  065%=      5-min Rain = 0
KST2 141536Z 02007KT 29/22 A3012 RMK A01 T02860215  RH  065%=      5-min Rain = 0
KST2 141537Z 04007KT 29/21 A3012 RMK A01 T02870214  RH  065%=      5-min Rain = 0
KST2 141538Z 04013G18KT 29/21 A3013 RMK A01 T02880214  RH  065%=      5-min Rain = 0
KST2 141539Z 07011KT 29/21 A3013 RMK A01 T02880213  RH  064%=      5-min Rain = 0
KST2 141540Z 06010KT 29/21 A3013 RMK A01 T02880213  RH  064%=      5-min Rain = 0
KST2 141541Z 05011KT 29/21 A3013 RMK A01 T02880212  RH  064%=      5-min Rain = 0
KST2 141542Z 04012KT 29/21 A3013 RMK A01 T02870212  RH  064%=      5-min Rain = 0
KST2 141543Z 05009KT 29/21 A3013 RMK A01 T02870212  RH  064%=      5-min Rain = 0
KST2 141544Z 06004KT 29/21 A3013 RMK A01 T02870212  RH  064%=      5-min Rain = 0
KST2 141545Z 06006G11KT 29/21 A3013 RMK A01 T02880213  RH  064%=      5-min Rain = 0
KST2 141546Z 05010KT 29/21 A3013 RMK A01 T02880213  RH  064%=      5-min Rain = 0
KST2 141547Z 05009KT 29/21 A3013 RMK A01 T02880212  RH  063%=      5-min Rain = 0
KST2 141548Z 06007KT 29/21 A3013 RMK A01 T02880212  RH  063%=      5-min Rain = 0
KST2 141549Z 07009KT 29/21 A3013 RMK A01 T02870212  RH  064%=      5-min Rain = 0
KST2 141550Z 05009KT 29/21 A3013 RMK A01 T02880214  RH  064%=      5-min Rain = 0
KST2 141551Z 06008KT 29/21 A3013 RMK A01 T02910214  RH  063%=      5-min Rain = 0
KST2 141552Z 06009KT 29/21 A3013 RMK A01 T02920213  RH  062%=      5-min Rain = 0
KST2 141553Z 05008KT 29/21 A3012 RMK A01 T02930213  RH  062%=      5-min Rain = 0
KST2 141554Z 05008KT 29/21 A3012 RMK A01 T02920211  RH  062%=      5-min Rain = 0
KST2 141555Z 05006KT 29/21 A3012 RMK A01 T02900212  RH  063%=      5-min Rain = 0
KST2 141556Z 04004KT 29/21 A3012 RMK A01 T02900212  RH  063%=      5-min Rain = 0
KST2 141557Z 03005KT 29/21 A3012 RMK A01 T02920214  RH  063%=      5-min Rain = 0
KST2 141558Z 05008KT 29/21 A3012 RMK A01 T02940214  RH  062%=      5-min Rain = 0
KST2 141559Z 05007KT 29/21 A3012 RMK A01 T02940214  RH  062%=      5-min Rain = 0
KST2 141600Z 05008KT 29/21 A3012 RMK A01 T02940214  RH  062%=      5-min Rain = 0
KST2 141601Z 04006KT 30/21 A3012 RMK A01 T02950213  RH  061%=      5-min Rain = 0
KST2 141602Z 07006KT 29/21 A3012 RMK A01 T02940212  RH  061%=      5-min Rain = 0
KST2 141603Z 05010KT 29/21 A3012 RMK A01 T02930213  RH  062%=      5-min Rain = 0
KST2 141604Z 03008KT 29/21 A3012 RMK A01 T02930214  RH  062%=      5-min Rain = 0
KST2 141605Z 02009KT 29/21 A3012 RMK A01 T02940213  RH  062%=      5-min Rain = 0
KST2 141606Z 03006KT 30/21 A3012 RMK A01 T02950213  RH  062%=      5-min Rain = 0
KST2 141607Z 02007KT 30/21 A3012 RMK A01 T02950214  RH  062%=      5-min Rain = 0
KST2 141608Z 05008KT 30/21 A3012 RMK A01 T02960213  RH  061%=      5-min Rain = 0
KST2 141609Z 05008KT 30/21 A3012 RMK A01 T02960213  RH  061%=      5-min Rain = 0
KST2 141610Z 07009KT 30/21 A3012 RMK A01 T02970212  RH  060%=      5-min Rain = 0
KST2 141611Z 08008KT 30/21 A3012 RMK A01 T02970212  RH  061%=      5-min Rain = 0
KST2 141612Z 07006KT 30/21 A3012 RMK A01 T02970212  RH  060%=      5-min Rain = 0
KST2 141613Z 09005KT 30/21 A3012 RMK A01 T02970212  RH  060%=      5-min Rain = 0
KST2 141614Z 06007KT 30/21 A3012 RMK A01 T02970212  RH  061%=      5-min Rain = 0
KST2 141615Z 04007KT 30/21 A3012 RMK A01 T02970212  RH  060%=      5-min Rain = 0
KST2 141616Z 05007KT 30/21 A3012 RMK A01 T02970211  RH  060%=      5-min Rain = 0
KST2 141617Z 02006KT 30/21 A3012 RMK A01 T02980211  RH  060%=      5-min Rain = 0
KST2 141618Z 04006KT 30/21 A3012 RMK A01 T02980211  RH  060%=      5-min Rain = 0
KST2 141619Z 02008KT 30/21 A3012 RMK A01 T02990211  RH  059%=      5-min Rain = 0
KST2 141620Z 05006KT 30/21 A3012 RMK A01 T02990211  RH  059%=      5-min Rain = 0
KST2 141621Z 03005KT 30/21 A3012 RMK A01 T02990210  RH  059%=      5-min Rain = 0
KST2 141622Z 05005KT 30/21 A3012 RMK A01 T02990211  RH  059%=      5-min Rain = 0
KST2 141623Z 07008G13KT 30/21 A3012 RMK A01 T02990211  RH  059%=      5-min Rain = 0
KST2 141624Z 07008KT 30/21 A3012 RMK A01 T03010212  RH  059%=      5-min Rain = 0
KST2 141625Z 06007KT 30/21 A3012 RMK A01 T03040212  RH  058%=      5-min Rain = 0
KST2 141626Z 06007KT 31/21 A3012 RMK A01 T03060211  RH  057%=      5-min Rain = 0
KST2 141627Z 07006KT 31/21 A3012 RMK A01 T03050209  RH  057%=      5-min Rain = 0
KST2 141628Z 07004KT 30/21 A3012 RMK A01 T03030208  RH  057%=      5-min Rain = 0
KST2 141629Z 08003KT 30/21 A3012 RMK A01 T03010207  RH  057%=      5-min Rain = 0
KST2 141630Z 07005KT 30/21 A3012 RMK A01 T03000210  RH  058%=      5-min Rain = 0
KST2 141631Z 05006KT 30/21 A3012 RMK A01 T03000209  RH  058%=      5-min Rain = 0
KST2 141632Z 04007KT 30/21 A3012 RMK A01 T03010210  RH  058%=      5-min Rain = 0
KST2 141633Z 03007KT 30/21 A3012 RMK A01 T03020211  RH  058%=      5-min Rain = 0
KST2 141634Z 04008KT 30/21 A3012 RMK A01 T03040210  RH  057%=      5-min Rain = 0
KST2 141635Z 03006KT 30/21 A3012 RMK A01 T03040209  RH  057%=      5-min Rain = 0
KST2 141636Z 05004KT 30/21 A3012 RMK A01 T03040211  RH  058%=      5-min Rain = 0
KST2 141637Z 05005KT 31/21 A3012 RMK A01 T03060210  RH  057%=      5-min Rain = 0
KST2 141638Z 06007KT 31/21 A3012 RMK A01 T03050209  RH  057%=      5-min Rain = 0
KST2 141639Z 03007KT 31/21 A3012 RMK A01 T03050210  RH  057%=      5-min Rain = 0
KST2 141640Z 02008KT 31/21 A3012 RMK A01 T03060212  RH  057%=      5-min Rain = 0
KST2 141641Z 01006KT 31/21 A3012 RMK A01 T03070210  RH  056%=      5-min Rain = 0
KST2 141642Z 03006KT 31/21 A3012 RMK A01 T03070211  RH  056%=      5-min Rain = 0
KST2 141643Z 06007KT 31/21 A3012 RMK A01 T03070210  RH  056%=      5-min Rain = 0
KST2 141644Z 06006KT 31/21 A3012 RMK A01 T03070209  RH  056%=      5-min Rain = 0
KST2 141645Z 06007KT 31/21 A3012 RMK A01 T03070209  RH  056%=      5-min Rain = 0
KST2 141646Z 05005KT 31/21 A3011 RMK A01 T03060208  RH  056%=      5-min Rain = 0
KST2 141647Z 05003KT 31/21 A3011 RMK A01 T03060208  RH  056%=      5-min Rain = 0
KST2 141648Z 05006KT 31/21 A3011 RMK A01 T03050209  RH  056%=      5-min Rain = 0
KST2 141649Z 05006KT 31/21 A3011 RMK A01 T03050209  RH  056%=      5-min Rain = 0
KST2 141650Z 05004KT 31/21 A3011 RMK A01 T03050209  RH  056%=      5-min Rain = 0
KST2 141651Z 05005KT 31/21 A3011 RMK A01 T03050208  RH  056%=      5-min Rain = 0
KST2 141652Z 08005G10KT 31/21 A3011 RMK A01 T03050210  RH  057%=      5-min Rain = 0
KST2 141653Z 07006KT 31/21 A3011 RMK A01 T03070208  RH  056%=      5-min Rain = 0
KST2 141654Z 05004KT 31/21 A3011 RMK A01 T03060208  RH  056%=      5-min Rain = 0
KST2 141655Z 03005KT 31/21 A3011 RMK A01 T03060212  RH  057%=      5-min Rain = 0
KST2 141656Z 03007KT 31/21 A3011 RMK A01 T03080214  RH  058%=      5-min Rain = 0
KST2 141657Z 01007KT 31/21 A3011 RMK A01 T03090214  RH  057%=      5-min Rain = 0
KST2 141658Z 35005KT 31/21 A3011 RMK A01 T03090214  RH  057%=      5-min Rain = 0
KST2 141659Z 01003KT 31/22 A3011 RMK A01 T03090215  RH  057%=      5-min Rain = 0
KST2 141700Z 01004KT 31/22 A3011 RMK A01 T03110216  RH  057%=      5-min Rain = 0
KST2 141701Z 02003KT 31/22 A3011 RMK A01 T03120215  RH  056%=      5-min Rain = 0
KST2 141702Z 01002KT 31/22 A3011 RMK A01 T03120216  RH  057%=      5-min Rain = 0
KST2 141703Z 02007KT 31/22 A3011 RMK A01 T03130216  RH  057%=      5-min Rain = 0
KST2 141704Z 03006KT 31/22 A301 RMK A01 T03120216  RH  057%=      5-min Rain = 0
KST2 141705Z 01005KT 31/22 A301 RMK A01 T03120216  RH  056%=      5-min Rain = 0
KST2 141706Z 01005KT 31/22 A301 RMK A01 T03120215  RH  056%=      5-min Rain = 0
KST2 141707Z 02006KT 31/22 A301 RMK A01 T03110215  RH  057%=      5-min Rain = 0
KST2 141708Z 03006KT 31/22 A301 RMK A01 T03110216  RH  057%=      5-min Rain = 0
KST2 141709Z 02005KT 31/22 A301 RMK A01 T03100215  RH  057%=      5-min Rain = 0
KST2 141710Z 01007KT 31/22 A301 RMK A01 T03100215  RH  057%=      5-min Rain = 0
KST2 141711Z 00006KT 31/22 A301 RMK A01 T03100216  RH  057%=      5-min Rain = 0
KST2 141712Z 00004KT 31/22 A301 RMK A01 T03100216  RH  057%=      5-min Rain = 0
KST2 141713Z 35005KT 31/22 A301 RMK A01 T03100215  RH  057%=      5-min Rain = 0
KST2 141714Z 36003KT 31/21 A301 RMK A01 T03100213  RH  056%=      5-min Rain = 0
KST2 141715Z 01002KT 31/21 A301 RMK A01 T03090213  RH  057%=      5-min Rain = 0
KST2 141716Z 08002KT 31/21 A301 RMK A01 T03090214  RH  057%=      5-min Rain = 0
KST2 141717Z 09004KT 31/22 A301 RMK A01 T03110216  RH  057%=      5-min Rain = 0
KST2 141718Z 04005KT 32/22 A301 RMK A01 T03150217  RH  056%=      5-min Rain = 0
KST2 141719Z 06008KT 32/22 A301 RMK A01 T03180217  RH  055%=      5-min Rain = 0
KST2 141720Z 07006KT 32/22 A301 RMK A01 T03190215  RH  054%=      5-min Rain = 0
KST2 141721Z 03006KT 32/21 A301 RMK A01 T03190214  RH  054%=      5-min Rain = 0
KST2 141722Z 03005KT 32/22 A301 RMK A01 T03180215  RH  054%=      5-min Rain = 0
KST2 141723Z 07005KT 32/21 A301 RMK A01 T03190214  RH  054%=      5-min Rain = 0
KST2 141724Z 05003KT 32/21 A301 RMK A01 T03170212  RH  054%=      5-min Rain = 0
KST2 141725Z 02005KT 32/22 A301 RMK A01 T03170215  RH  055%=      5-min Rain = 0
KST2 141726Z 03005KT 32/22 A301 RMK A01 T03190216  RH  054%=      5-min Rain = 0
KST2 141727Z 00004KT 32/22 A301 RMK A01 T03210216  RH  054%=      5-min Rain = 0
KST2 141728Z 02003KT 32/22 A301 RMK A01 T03200215  RH  054%=      5-min Rain = 0
KST2 141729Z 02003KT 32/22 A301 RMK A01 T03190215  RH  054%=      5-min Rain = 0
KST2 141730Z 35005KT 32/22 A301 RMK A01 T03200218  RH  055%=      5-min Rain = 0
KST2 141731Z 35007KT 32/22 A301 RMK A01 T03220217  RH  054%=      5-min Rain = 0
KST2 141732Z 35005KT 32/22 A301 RMK A01 T03210216  RH  054%=      5-min Rain = 0
KST2 141733Z 34004KT 32/22 A301 RMK A01 T03200216  RH  054%=      5-min Rain = 0
KST2 141734Z 03002KT 32/22 A301 RMK A01 T03190216  RH  055%=      5-min Rain = 0
KST2 141735Z 03006G13KT 32/22 A301 RMK A01 T03190216  RH  055%=      5-min Rain = 0
KST2 141736Z 03009KT 32/22 A301 RMK A01 T03190216  RH  054%=      5-min Rain = 0
KST2 141737Z 02007KT 32/22 A301 RMK A01 T03200217  RH  055%=      5-min Rain = 0
KST2 141738Z 02008KT 32/22 A301 RMK A01 T03200217  RH  055%=      5-min Rain = 0
KST2 141739Z 03009KT 32/22 A301 RMK A01 T03200217  RH  054%=      5-min Rain = 0
KST2 141740Z 04005KT 32/22 A301 RMK A01 T03200217  RH  054%=      5-min Rain = 0
KST2 141741Z 03004KT 32/22 A301 RMK A01 T03200218  RH  055%=      5-min Rain = 0
KST2 141742Z 03001KT 32/22 A301 RMK A01 T03210217  RH  054%=      5-min Rain = 0
KST2 141743Z 07003KT 32/22 A301 RMK A01 T03210218  RH  054%=      5-min Rain = 0
KST2 141744Z 05002KT 32/22 A301 RMK A01 T03220217  RH  054%=      5-min Rain = 0
KST2 141745Z 05004KT 32/22 A301 RMK A01 T03220217  RH  054%=      5-min Rain = 0
KST2 141746Z 04004KT 32/22 A301 RMK A01 T03220217  RH  054%=      5-min Rain = 0
KST2 141747Z 36006KT 32/22 A301 RMK A01 T03210218  RH  054%=      5-min Rain = 0
KST2 141748Z 34004KT 32/22 A301 RMK A01 T03220216  RH  054%=      5-min Rain = 0
KST2 141749Z 36003KT 32/22 A3009 RMK A01 T03210215  RH  053%=      5-min Rain = 0
KST2 141750Z 01003KT 32/22 A3009 RMK A01 T03210216  RH  054%=      5-min Rain = 0
KST2 141751Z 02006KT 32/22 A3009 RMK A01 T03210218  RH  054%=      5-min Rain = 0
KST2 141752Z 00005KT 32/22 A3009 RMK A01 T03240219  RH  054%=      5-min Rain = 0
KST2 141753Z 02006KT 33/22 A3009 RMK A01 T03270221  RH  054%=      5-min Rain = 0
KST2 141754Z 02005KT 33/22 A3009 RMK A01 T03290217  RH  052%=      5-min Rain = 0
KST2 141755Z 01002KT 33/22 A3009 RMK A01 T03270216  RH  052%=      5-min Rain = 0
KST2 141756Z 03006G13KT 33/22 A3009 RMK A01 T03260216  RH  053%=      5-min Rain = 0
KST2 141757Z 03008KT 33/22 A3009 RMK A01 T03260216  RH  052%=      5-min Rain = 0
KST2 141758Z 02006KT 33/22 A3009 RMK A01 T03250215  RH  052%=      5-min Rain = 0
KST2 141759Z 02007KT 32/22 A3009 RMK A01 T03240215  RH  053%=      5-min Rain = 0
KST2 141800Z 35006KT 32/22 A3009 RMK A01 T03230216  RH  053%=      5-min Rain = 0
KST2 141801Z 35003KT 32/22 A3009 RMK A01 T03220215  RH  053%=      5-min Rain = 0
KST2 141802Z 35004KT 32/22 A3009 RMK A01 T03220215  RH  053%=      5-min Rain = 0
KST2 141803Z 01002G7KT 32/22 A3009 RMK A01 T03220215  RH  053%=      5-min Rain = 0
KST2 141804Z 02010KT 32/22 A3009 RMK A01 T03240217  RH  053%=      5-min Rain = 0
KST2 141805Z 03012KT 33/22 A3009 RMK A01 T03250217  RH  053%=      5-min Rain = 0
KST2 141806Z 04011KT 33/22 A3009 RMK A01 T03260216  RH  052%=      5-min Rain = 0
KST2 141807Z 01009KT 33/22 A3009 RMK A01 T03270217  RH  052%=      5-min Rain = 0
KST2 141808Z 02010KT 33/22 A3009 RMK A01 T03280215  RH  052%=      5-min Rain = 0
KST2 141809Z 02007KT 33/22 A3009 RMK A01 T03290215  RH  051%=      5-min Rain = 0
KST2 141810Z 04004KT 33/21 A3009 RMK A01 T03280214  RH  051%=      5-min Rain = 0
KST2 141811Z 05003KT 33/21 A3009 RMK A01 T03280213  RH  051%=      5-min Rain = 0
KST2 141812Z 01006G11KT 33/22 A3009 RMK A01 T03280215  RH  052%=      5-min Rain = 0
KST2 141813Z 00009KT 33/22 A3009 RMK A01 T03300217  RH  051%=      5-min Rain = 0
KST2 141814Z 03010KT 33/22 A3009 RMK A01 T03320215  RH  050%=      5-min Rain = 0
KST2 141815Z 04008KT 33/22 A3009 RMK A01 T03320215  RH  050%=      5-min Rain = 0
KST2 141816Z 02011KT 33/22 A3009 RMK A01 T03320217  RH  051%=      5-min Rain = 0
KST2 141817Z 02011KT 33/22 A3009 RMK A01 T03340216  RH  050%=      5-min Rain = 0
KST2 141818Z 01008KT 33/22 A3009 RMK A01 T03340215  RH  050%=      5-min Rain = 0
KST2 141819Z 00007KT 33/21 A3009 RMK A01 T03330213  RH  050%=      5-min Rain = 0
KST2 141820Z 01009KT 33/21 A3009 RMK A01 T03310213  RH  050%=      5-min Rain = 0
KST2 141821Z 02009KT 33/21 A3009 RMK A01 T03300213  RH  050%=      5-min Rain = 0
KST2 141822Z 00010KT 33/21 A3009 RMK A01 T03320214  RH  050%=      5-min Rain = 0
KST2 141823Z 02010KT 33/22 A3009 RMK A01 T03340217  RH  050%=      5-min Rain = 0
KST2 141824Z 03008KT 34/22 A3009 RMK A01 T03360215  RH  049%=      5-min Rain = 0
KST2 141825Z 02007KT 33/21 A3009 RMK A01 T03340213  RH  049%=      5-min Rain = 0
KST2 141826Z 03005KT 33/21 A3009 RMK A01 T03320213  RH  050%=      5-min Rain = 0
KST2 141827Z 04005KT 33/21 A3009 RMK A01 T03320212  RH  050%=      5-min Rain = 0
KST2 141828Z 02008KT 33/21 A3008 RMK A01 T03310214  RH  050%=      5-min Rain = 0
KST2 141829Z 02007KT 33/21 A3008 RMK A01 T03310214  RH  050%=      5-min Rain = 0
KST2 141830Z 02005KT 33/21 A3008 RMK A01 T03280211  RH  050%=      5-min Rain = 0
KST2 141831Z 05006KT 33/21 A3008 RMK A01 T03270212  RH  051%=      5-min Rain = 0
KST2 141832Z 06008KT 33/21 A3008 RMK A01 T03270212  RH  051%=      5-min Rain = 0
KST2 141833Z 06009KT 33/21 A3008 RMK A01 T03290212  RH  050%=      5-min Rain = 0
KST2 141834Z 06011KT 33/21 A3008 RMK A01 T03310212  RH  050%=      5-min Rain = 0
KST2 141835Z 06011KT 33/21 A3008 RMK A01 T03320212  RH  049%=      5-min Rain = 0
KST2 141836Z 06009KT 33/21 A3008 RMK A01 T03320211  RH  049%=      5-min Rain = 0
KST2 141837Z 04010KT 33/21 A3008 RMK A01 T03310213  RH  050%=      5-min Rain = 0
KST2 141838Z 02005KT 33/21 A3008 RMK A01 T03310213  RH  050%=      5-min Rain = 0
KST2 141839Z 03010KT 33/22 A3008 RMK A01 T03330216  RH  050%=      5-min Rain = 0
KST2 141840Z 02009G14KT 33/21 A3008 RMK A01 T03340214  RH  049%=      5-min Rain = 0
KST2 141841Z 01013KT 33/21 A3008 RMK A01 T03330212  RH  049%=      5-min Rain = 0
KST2 141842Z 02011KT 33/21 A3008 RMK A01 T03330212  RH  049%=      5-min Rain = 0
KST2 141843Z 01007KT 33/21 A3007 RMK A01 T03320211  RH  049%=      5-min Rain = 0
KST2 141844Z 01010KT 33/21 A3007 RMK A01 T03320212  RH  049%=      5-min Rain = 0
KST2 141845Z 03010KT 33/21 A3007 RMK A01 T03340214  RH  050%=      5-min Rain = 0
KST2 141846Z 04009KT 34/21 A3007 RMK A01 T03350214  RH  049%=      5-min Rain = 0
KST2 141847Z 04004KT 33/21 A3007 RMK A01 T03330213  RH  049%=      5-min Rain = 0
KST2 141848Z 02006KT 33/21 A3007 RMK A01 T03330214  RH  050%=      5-min Rain = 0
KST2 141849Z 02009KT 33/21 A3007 RMK A01 T03340213  RH  049%=      5-min Rain = 0
KST2 141850Z 05010KT 33/21 A3007 RMK A01 T03340208  RH  048%=      5-min Rain = 0
KST2 141851Z 02010KT 34/21 A3007 RMK A01 T03350209  RH  048%=      5-min Rain = 0
KST2 141852Z 03009KT 34/21 A3007 RMK A01 T03370212  RH  048%=      5-min Rain = 0
KST2 141853Z 05010G17KT 34/21 A3007 RMK A01 T03390212  RH  048%=      5-min Rain = 0
KST2 141854Z 05011KT 34/21 A3007 RMK A01 T03400212  RH  047%=      5-min Rain = 0
KST2 141855Z 05009KT 34/21 A3007 RMK A01 T03400212  RH  048%=      5-min Rain = 0
KST2 141856Z 05010KT 34/21 A3007 RMK A01 T03400212  RH  047%=      5-min Rain = 0
KST2 141857Z 05010KT 34/21 A3007 RMK A01 T03410213  RH  047%=      5-min Rain = 0
KST2 141858Z 05008KT 34/21 A3007 RMK A01 T03420213  RH  047%=      5-min Rain = 0
KST2 141859Z 04006KT 34/21 A3007 RMK A01 T03420214  RH  047%=      5-min Rain = 0
KST2 141900Z 03007KT 34/21 A3006 RMK A01 T03420214  RH  047%=      5-min Rain = 0
KST2 141901Z 04011KT 34/21 A3007 RMK A01 T03430213  RH  047%=      5-min Rain = 0
KST2 141902Z 05014KT 34/21 A3006 RMK A01 T03400211  RH  047%=      5-min Rain = 0
KST2 141903Z 05012G18KT 34/21 A3006 RMK A01 T03390211  RH  047%=      5-min Rain = 0
KST2 141904Z 04012KT 34/21 A3007 RMK A01 T03380211  RH  047%=      5-min Rain = 0
KST2 141905Z 05007G12KT 34/21 A3006 RMK A01 T03380210  RH  047%=      5-min Rain = 0
KST2 141906Z 03009KT 34/21 A3006 RMK A01 T03370210  RH  048%=      5-min Rain = 0
KST2 141907Z 04012KT 34/21 A3006 RMK A01 T03370211  RH  048%=      5-min Rain = 0
KST2 141908Z 05006KT 34/21 A3006 RMK A01 T03370210  RH  048%=      5-min Rain = 0
KST2 141909Z 03004KT 34/21 A3006 RMK A01 T03370210  RH  048%=      5-min Rain = 0
KST2 141910Z 01006G12KT 34/21 A3006 RMK A01 T03370211  RH  048%=      5-min Rain = 0
KST2 141911Z 02010KT 34/21 A3006 RMK A01 T03380211  RH  048%=      5-min Rain = 0
KST2 141912Z 02010KT 34/21 A3006 RMK A01 T03380211  RH  048%=      5-min Rain = 0
KST2 141913Z 03006KT 34/21 A3006 RMK A01 T03390213  RH  048%=      5-min Rain = 0
KST2 141914Z 01010G15KT 34/21 A3006 RMK A01 T03410213  RH  047%=      5-min Rain = 0
KST2 141915Z 01014KT 34/21 A3006 RMK A01 T03420213  RH  047%=      5-min Rain = 0
KST2 141916Z 00010KT 34/21 A3005 RMK A01 T03420212  RH  047%=      5-min Rain = 0
KST2 141917Z 04008KT 34/21 A3005 RMK A01 T03410211  RH  047%=      5-min Rain = 0
KST2 141918Z 04011KT 34/21 A3005 RMK A01 T03400211  RH  047%=      5-min Rain = 0
KST2 141919Z 04011KT 34/21 A3005 RMK A01 T03400211  RH  047%=      5-min Rain = 0
KST2 141920Z 06012KT 34/21 A3005 RMK A01 T03400210  RH  047%=      5-min Rain = 0
KST2 141921Z 05008KT 34/21 A3005 RMK A01 T03400209  RH  047%=      5-min Rain = 0
KST2 141922Z 04006KT 34/21 A3005 RMK A01 T03380209  RH  047%=      5-min Rain = 0
KST2 141923Z 07006KT 34/21 A3005 RMK A01 T03380210  RH  047%=      5-min Rain = 0
KST2 141924Z 05013G21KT 34/21 A3005 RMK A01 T03390210  RH  047%=      5-min Rain = 0
KST2 141925Z 03011KT 34/21 A3005 RMK A01 T03400211  RH  047%=      5-min Rain = 0
KST2 141926Z 06014G19KT 34/21 A3005 RMK A01 T03410212  RH  047%=      5-min Rain = 0
KST2 141927Z 04010KT 34/21 A3005 RMK A01 T03420211  RH  047%=      5-min Rain = 0
KST2 141928Z 03007KT 34/21 A3005 RMK A01 T03410211  RH  047%=      5-min Rain = 0
KST2 141929Z 07011KT 34/21 A3005 RMK A01 T03410211  RH  047%=      5-min Rain = 0
KST2 141930Z 07006KT 34/21 A3005 RMK A01 T03410207  RH  046%=      5-min Rain = 0
KST2 141931Z 07009KT 34/21 A3005 RMK A01 T03400207  RH  046%=      5-min Rain = 0
KST2 141932Z 06006KT 34/21 A3005 RMK A01 T03390208  RH  046%=      5-min Rain = 0
KST2 141933Z 08008KT 34/21 A3005 RMK A01 T03400209  RH  047%=      5-min Rain = 0
KST2 141934Z 07006KT 34/21 A3005 RMK A01 T03410208  RH  046%=      5-min Rain = 0
KST2 141935Z 07011KT 34/21 A3004 RMK A01 T03420209  RH  046%=      5-min Rain = 0
KST2 141936Z 09009KT 34/21 A3004 RMK A01 T03430209  RH  046%=      5-min Rain = 0
KST2 141937Z 08008KT 35/21 A3004 RMK A01 T03450208  RH  045%=      5-min Rain = 0
KST2 141938Z 05006KT 35/21 A3004 RMK A01 T03450209  RH  045%=      5-min Rain = 0
KST2 141939Z 03008KT 35/21 A3004 RMK A01 T03470211  RH  045%=      5-min Rain = 0
KST2 141940Z 05008KT 35/21 A3004 RMK A01 T03460210  RH  045%=      5-min Rain = 0
KST2 141941Z 04009KT 35/21 A3004 RMK A01 T03450212  RH  046%=      5-min Rain = 0
KST2 141942Z 06011KT 35/21 A3004 RMK A01 T03460212  RH  046%=      5-min Rain = 0
KST2 141943Z 07013KT 35/21 A3004 RMK A01 T03470210  RH  045%=      5-min Rain = 0
KST2 141944Z 07010KT 35/21 A3004 RMK A01 T03450209  RH  045%=      5-min Rain = 0
KST2 141945Z 07009KT 34/21 A3004 RMK A01 T03440210  RH  046%=      5-min Rain = 0
KST2 141946Z 09009KT 35/21 A3004 RMK A01 T03450209  RH  045%=      5-min Rain = 0
KST2 141947Z 08007KT 35/21 A3004 RMK A01 T03450208  RH  045%=      5-min Rain = 0
KST2 141948Z 07006KT 34/21 A3004 RMK A01 T03440209  RH  045%=      5-min Rain = 0
KST2 141949Z 05010KT 34/21 A3004 RMK A01 T03440209  RH  045%=      5-min Rain = 0
KST2 141950Z 03010KT 35/21 A3004 RMK A01 T03450210  RH  045%=      5-min Rain = 0
KST2 141951Z 02009KT 35/21 A3004 RMK A01 T03460211  RH  045%=      5-min Rain = 0
KST2 141952Z 02008KT 35/21 A3004 RMK A01 T03470210  RH  045%=      5-min Rain = 0
KST2 141953Z 01009KT 35/21 A3004 RMK A01 T03470211  RH  045%=      5-min Rain = 0
KST2 141954Z 03005KT 35/21 A3004 RMK A01 T03470209  RH  045%=      5-min Rain = 0
KST2 141955Z 03007KT 35/21 A3004 RMK A01 T03460209  RH  045%=      5-min Rain = 0
KST2 141956Z 05005G10KT 35/21 A3004 RMK A01 T03460208  RH  045%=      5-min Rain = 0
KST2 141957Z 08008KT 35/21 A3004 RMK A01 T03460209  RH  045%=      5-min Rain = 0
KST2 141958Z 05009KT 35/21 A3004 RMK A01 T03460207  RH  044%=      5-min Rain = 0
KST2 141959Z 04009KT 34/21 A3004 RMK A01 T03440206  RH  045%=      5-min Rain = 0
KST2 142000Z 04009KT 34/20 A3004 RMK A01 T03420204  RH  045%=      5-min Rain = 0
KST2 142001Z 06009KT 34/21 A3004 RMK A01 T03410205  RH  045%=      5-min Rain = 0
KST2 142002Z 05006KT 34/21 A3004 RMK A01 T03410205  RH  045%=      5-min Rain = 0
KST2 142003Z 07006KT 34/21 A3004 RMK A01 T03400205  RH  045%=      5-min Rain = 0
KST2 142004Z 06004KT 34/21 A3003 RMK A01 T03400206  RH  045%=      5-min Rain = 0
KST2 142005Z 06010KT 34/21 A3004 RMK A01 T03410207  RH  046%=      5-min Rain = 0
KST2 142006Z 06009KT 34/21 A3003 RMK A01 T03430209  RH  046%=      5-min Rain = 0
KST2 142007Z 05011KT 35/21 A3003 RMK A01 T03450209  RH  045%=      5-min Rain = 0
KST2 142008Z 05009KT 34/21 A3003 RMK A01 T03440206  RH  044%=      5-min Rain = 0
KST2 142009Z 06006KT 34/20 A3003 RMK A01 T03410204  RH  045%=      5-min Rain = 0
KST2 142010Z 04007KT 34/21 A3003 RMK A01 T03400205  RH  045%=      5-min Rain = 0
KST2 142011Z 02006KT 34/21 A3003 RMK A01 T03410207  RH  046%=      5-min Rain = 0
KST2 142012Z 01004KT 34/21 A3003 RMK A01 T03430207  RH  045%=      5-min Rain = 0
KST2 142013Z 03005KT 34/21 A3003 RMK A01 T03430208  RH  045%=      5-min Rain = 0
KST2 142014Z 07006KT 35/21 A3003 RMK A01 T03450209  RH  045%=      5-min Rain = 0
KST2 142015Z 06008KT 35/21 A3003 RMK A01 T03460207  RH  044%=      5-min Rain = 0
KST2 142016Z 03008KT 35/21 A3003 RMK A01 T03460208  RH  045%=      5-min Rain = 0
KST2 142017Z 02007KT 35/21 A3003 RMK A01 T03450207  RH  045%=      5-min Rain = 0
KST2 142018Z 03004KT 34/21 A3003 RMK A01 T03430206  RH  045%=      5-min Rain = 0
KST2 142019Z 04004KT 34/20 A3003 RMK A01 T03420204  RH  045%=      5-min Rain = 0
KST2 142020Z 07005KT 34/20 A3003 RMK A01 T03410204  RH  045%=      5-min Rain = 0
KST2 142021Z 07006KT 34/21 A3003 RMK A01 T03420205  RH  045%=      5-min Rain = 0
KST2 142022Z 08008KT 35/21 A3002 RMK A01 T03450205  RH  044%=      5-min Rain = 0
KST2 142023Z 06007KT 35/20 A3002 RMK A01 T03480204  RH  043%=      5-min Rain = 0
KST2 142024Z 04008KT 35/21 A3002 RMK A01 T03480206  RH  043%=      5-min Rain = 0
KST2 142025Z 01005KT 35/21 A3002 RMK A01 T03490207  RH  044%=      5-min Rain = 0
KST2 142026Z 01004KT 35/21 A3002 RMK A01 T03480207  RH  044%=      5-min Rain = 0
KST2 142027Z 05004KT 35/21 A3002 RMK A01 T03480207  RH  044%=      5-min Rain = 0
KST2 142028Z 09011KT 35/21 A3002 RMK A01 T03480207  RH  044%=      5-min Rain = 0
KST2 142029Z 10007KT 35/21 A3002 RMK A01 T03490205  RH  043%=      5-min Rain = 0
KST2 142030Z 09007KT 35/20 A3002 RMK A01 T03460204  RH  043%=      5-min Rain = 0
KST2 142031Z 06007KT 35/21 A3002 RMK A01 T03460206  RH  044%=      5-min Rain = 0
KST2 142032Z 04008KT 35/21 A3002 RMK A01 T03490208  RH  044%=      5-min Rain = 0
KST2 142033Z 03007KT 35/21 A3002 RMK A01 T03500206  RH  043%=      5-min Rain = 0
KST2 142034Z 04008KT 35/21 A3002 RMK A01 T03500205  RH  043%=      5-min Rain = 0
KST2 142035Z 04008KT 35/21 A3002 RMK A01 T03500205  RH  043%=      5-min Rain = 0
KST2 142036Z 05009KT 35/20 A3002 RMK A01 T03510204  RH  042%=      5-min Rain = 0
KST2 142037Z 06008KT 35/20 A3002 RMK A01 T03510202  RH  042%=      5-min Rain = 0
KST2 142038Z 07006G12KT 35/20 A3002 RMK A01 T03500199  RH  041%=      5-min Rain = 0
KST2 142039Z 07010KT 35/20 A3002 RMK A01 T03500202  RH  042%=      5-min Rain = 0
KST2 142040Z 06012KT 35/20 A3001 RMK A01 T03490202  RH  042%=      5-min Rain = 0
KST2 142041Z 06010KT 35/20 A3001 RMK A01 T03500202  RH  042%=      5-min Rain = 0
KST2 142042Z 05007KT 35/20 A3001 RMK A01 T03490201  RH  042%=      5-min Rain = 0
KST2 142043Z 07005KT 35/20 A3001 RMK A01 T03470201  RH  042%=      5-min Rain = 0
KST2 142044Z 08005KT 35/20 A3001 RMK A01 T03460201  RH  043%=      5-min Rain = 0
KST2 142045Z 07005KT 35/20 A3001 RMK A01 T03470203  RH  043%=      5-min Rain = 0
KST2 142046Z 07007KT 35/20 A3001 RMK A01 T03510203  RH  042%=      5-min Rain = 0
KST2 142047Z 06007KT 35/20 A3001 RMK A01 T03520204  RH  042%=      5-min Rain = 0
KST2 142048Z 07006KT 35/20 A3001 RMK A01 T03510204  RH  042%=      5-min Rain = 0
KST2 142049Z 04007KT 35/21 A3001 RMK A01 T03510206  RH  043%=      5-min Rain = 0
KST2 142050Z 07007KT 35/21 A3001 RMK A01 T03540209  RH  043%=      5-min Rain = 0
KST2 142051Z 07010KT 36/21 A3001 RMK A01 T03560209  RH  042%=      5-min Rain = 0
KST2 142052Z 07008KT 36/21 A3001 RMK A01 T03580207  RH  042%=      5-min Rain = 0
KST2 142053Z 05006KT 36/21 A3001 RMK A01 T03580206  RH  041%=      5-min Rain = 0
KST2 142054Z 06004KT 36/21 A3001 RMK A01 T03560206  RH  042%=      5-min Rain = 0
KST2 142055Z 03004KT 36/21 A3001 RMK A01 T03560207  RH  042%=      5-min Rain = 0
KST2 142056Z 06008KT 36/21 A30 RMK A01 T03570207  RH  042%=      5-min Rain = 0
KST2 142057Z 06007KT 36/21 A30 RMK A01 T03580205  RH  041%=      5-min Rain = 0
KST2 142058Z 04009KT 36/21 A30 RMK A01 T03570205  RH  041%=      5-min Rain = 0
KST2 142059Z 03010KT 36/20 A30 RMK A01 T03560203  RH  041%=      5-min Rain = 0
KST2 142100Z 01007KT 35/20 A30 RMK A01 T03540201  RH  041%=      5-min Rain = 0
KST2 142101Z 01006KT 35/20 A30 RMK A01 T03510200  RH  041%=      5-min Rain = 0
KST2 142102Z 02007KT 35/20 A30 RMK A01 T03500202  RH  042%=      5-min Rain = 0
KST2 142103Z 04008KT 35/20 A30 RMK A01 T03500202  RH  042%=      5-min Rain = 0
KST2 142104Z 06011KT 35/20 A30 RMK A01 T03510200  RH  041%=      5-min Rain = 0
KST2 142105Z 07010KT 35/20 A30 RMK A01 T03530201  RH  041%=      5-min Rain = 0
KST2 142106Z 07006KT 36/20 A30 RMK A01 T03550199  RH  040%=      5-min Rain = 0
KST2 142107Z 06010KT 36/20 A30 RMK A01 T03550200  RH  040%=      5-min Rain = 0
KST2 142108Z 06008KT 36/20 A30 RMK A01 T03560202  RH  041%=      5-min Rain = 0
KST2 142109Z 07005KT 36/20 A30 RMK A01 T03570199  RH  040%=      5-min Rain = 0
KST2 142110Z 09006KT 36/20 A30 RMK A01 T03560201  RH  040%=      5-min Rain = 0
KST2 142111Z 02004KT 36/20 A30 RMK A01 T03560199  RH  040%=      5-min Rain = 0
KST2 142112Z 02003KT 36/20 A30 RMK A01 T03550199  RH  040%=      5-min Rain = 0
KST2 142113Z 06004KT 35/20 A30 RMK A01 T03540199  RH  040%=      5-min Rain = 0
KST2 142114Z 09007G12KT 35/20 A30 RMK A01 T03540199  RH  040%=      5-min Rain = 0
KST2 142115Z 09010KT 35/20 A30 RMK A01 T03540200  RH  041%=      5-min Rain = 0
KST2 142116Z 08011KT 35/20 A30 RMK A01 T03540201  RH  041%=      5-min Rain = 0
KST2 142117Z 09008KT 35/20 A30 RMK A01 T03540201  RH  041%=      5-min Rain = 0
KST2 142118Z 10006KT 35/20 A2999 RMK A01 T03530201  RH  041%=      5-min Rain = 0
KST2 142119Z 10007KT 35/20 A2999 RMK A01 T03530200  RH  041%=      5-min Rain = 0
KST2 142120Z 03010KT 35/20 A2999 RMK A01 T03530202  RH  041%=      5-min Rain = 0
KST2 142121Z 02007KT 35/20 A2999 RMK A01 T03530201  RH  041%=      5-min Rain = 0
KST2 142122Z 03005KT 35/20 A2999 RMK A01 T03540203  RH  041%=      5-min Rain = 0
KST2 142123Z 07007KT 35/20 A2999 RMK A01 T03540202  RH  041%=      5-min Rain = 0
KST2 142124Z 08004KT 36/20 A2999 RMK A01 T03550201  RH  041%=      5-min Rain = 0
KST2 142125Z 08004KT 36/20 A2999 RMK A01 T03560201  RH  040%=      5-min Rain = 0
KST2 142126Z 07005KT 36/20 A2999 RMK A01 T03560200  RH  040%=      5-min Rain = 0
KST2 142127Z 05007KT 36/20 A2999 RMK A01 T03560202  RH  041%=      5-min Rain = 0
KST2 142128Z 04007KT 36/20 A2999 RMK A01 T03570202  RH  040%=      5-min Rain = 0
KST2 142129Z 04008KT 36/20 A2999 RMK A01 T03580201  RH  040%=      5-min Rain = 0
KST2 142130Z 05009KT 36/20 A2999 RMK A01 T03580202  RH  040%=      5-min Rain = 0
KST2 142131Z 07009KT 36/20 A2999 RMK A01 T03580201  RH  040%=      5-min Rain = 0
KST2 142132Z 06007KT 36/20 A2999 RMK A01 T03580199  RH  039%=      5-min Rain = 0
KST2 142133Z 07007KT 36/20 A2999 RMK A01 T03550199  RH  040%=      5-min Rain = 0
KST2 142134Z 08011KT 36/20 A2999 RMK A01 T03550199  RH  040%=      5-min Rain = 0
KST2 142135Z 07009KT 36/20 A2999 RMK A01 T03560198  RH  040%=      5-min Rain = 0
KST2 142136Z 08010KT 36/20 A2999 RMK A01 T03570198  RH  039%=      5-min Rain = 0
KST2 142137Z 06008KT 36/20 A2999 RMK A01 T03580198  RH  039%=      5-min Rain = 0
KST2 142138Z 05009G14KT 36/20 A2999 RMK A01 T03590198  RH  039%=      5-min Rain = 0
KST2 142139Z 06010KT 36/20 A2999 RMK A01 T03590196  RH  038%=      5-min Rain = 0
KST2 142140Z 05009KT 36/20 A2999 RMK A01 T03580196  RH  039%=      5-min Rain = 0
KST2 142141Z 06010KT 36/20 A2999 RMK A01 T03580195  RH  039%=      5-min Rain = 0
KST2 142142Z 07009KT 36/20 A2999 RMK A01 T03570195  RH  039%=      5-min Rain = 0
KST2 142143Z 08008KT 36/19 A2999 RMK A01 T03590193  RH  038%=      5-min Rain = 0
KST2 142144Z 05008KT 36/19 A2998 RMK A01 T03570193  RH  038%=      5-min Rain = 0
KST2 142145Z 03009KT 36/20 A2998 RMK A01 T03570195  RH  039%=      5-min Rain = 0
KST2 142146Z 03005KT 36/19 A2998 RMK A01 T03560194  RH  039%=      5-min Rain = 0
KST2 142147Z 02004KT 36/19 A2998 RMK A01 T03550193  RH  039%=      5-min Rain = 0
KST2 142148Z 07004KT 35/19 A2998 RMK A01 T03540194  RH  039%=      5-min Rain = 0
KST2 142149Z 07008KT 36/20 A2998 RMK A01 T03550195  RH  039%=      5-min Rain = 0
KST2 142150Z 08009KT 36/20 A2998 RMK A01 T03560196  RH  039%=      5-min Rain = 0
KST2 142151Z 09010KT 36/20 A2998 RMK A01 T03570197  RH  039%=      5-min Rain = 0
KST2 142152Z 08009KT 36/20 A2998 RMK A01 T03580198  RH  039%=      5-min Rain = 0
KST2 142153Z 08007KT 36/20 A2998 RMK A01 T03590197  RH  039%=      5-min Rain = 0
KST2 142154Z 09005KT 36/20 A2998 RMK A01 T03580196  RH  039%=      5-min Rain = 0
KST2 142155Z 09004KT 36/20 A2998 RMK A01 T03560195  RH  039%=      5-min Rain = 0
KST2 142156Z 09005KT 36/20 A2998 RMK A01 T03550196  RH  039%=      5-min Rain = 0
KST2 142157Z 09006KT 36/20 A2998 RMK A01 T03560198  RH  040%=      5-min Rain = 0
KST2 142158Z 08008KT 36/20 A2998 RMK A01 T03580198  RH  039%=      5-min Rain = 0
KST2 142159Z 08010KT 36/20 A2998 RMK A01 T03590198  RH  039%=      5-min Rain = 0
KST2 142200Z 09011KT 36/20 A2998 RMK A01 T03590199  RH  039%=      5-min Rain = 0
KST2 142201Z 08009KT 36/20 A2998 RMK A01 T03580200  RH  040%=      5-min Rain = 0
KST2 142202Z 09012KT 36/20 A2998 RMK A01 T03580201  RH  040%=      5-min Rain = 0
KST2 142203Z 09011KT 36/20 A2998 RMK A01 T03600200  RH  039%=      5-min Rain = 0
KST2 142204Z 06008KT 36/20 A2998 RMK A01 T03630201  RH  039%=      5-min Rain = 0
KST2 142205Z 05006KT 36/20 A2998 RMK A01 T03630199  RH  038%=      5-min Rain = 0
KST2 142206Z 09007KT 36/20 A2998 RMK A01 T03610199  RH  039%=      5-min Rain = 0
KST2 142207Z 07009KT 36/20 A2998 RMK A01 T03600197  RH  039%=      5-min Rain = 0
KST2 142208Z 08010KT 36/20 A2998 RMK A01 T03600198  RH  039%=      5-min Rain = 0
KST2 142209Z 08008KT 36/20 A2998 RMK A01 T03590196  RH  039%=      5-min Rain = 0
KST2 142210Z 08009KT 36/20 A2998 RMK A01 T03580197  RH  039%=      5-min Rain = 0
KST2 142211Z 08011KT 36/20 A2998 RMK A01 T03580198  RH  039%=      5-min Rain = 0
KST2 142212Z 07011KT 36/20 A2998 RMK A01 T03580196  RH  039%=      5-min Rain = 0
KST2 142213Z 08009KT 36/19 A2998 RMK A01 T03570194  RH  038%=      5-min Rain = 0
KST2 142214Z 09010KT 36/20 A2998 RMK A01 T03550196  RH  039%=      5-min Rain = 0
KST2 142215Z 09007KT 36/20 A2998 RMK A01 T03580197  RH  039%=      5-min Rain = 0
KST2 142216Z 07007G12KT 36/20 A2998 RMK A01 T03580196  RH  039%=      5-min Rain = 0
KST2 142217Z 07010KT 36/20 A2998 RMK A01 T03570198  RH  039%=      5-min Rain = 0
KST2 142218Z 08010KT 36/20 A2998 RMK A01 T03590198  RH  039%=      5-min Rain = 0
KST2 142219Z 08010KT 36/20 A2998 RMK A01 T03610197  RH  038%=      5-min Rain = 0
KST2 142220Z 09010KT 36/20 A2998 RMK A01 T03610196  RH  038%=      5-min Rain = 0
KST2 142221Z 08009KT 36/20 A2998 RMK A01 T03580195  RH  039%=      5-min Rain = 0
KST2 142222Z 07009KT 36/20 A2998 RMK A01 T03560196  RH  039%=      5-min Rain = 0
KST2 142223Z 08005KT 36/20 A2998 RMK A01 T03550196  RH  039%=      5-min Rain = 0
KST2 142224Z 12004KT 35/20 A2998 RMK A01 T03540195  RH  039%=      5-min Rain = 0
KST2 142225Z 14005KT 35/20 A2998 RMK A01 T03530195  RH  039%=      5-min Rain = 0
KST2 142226Z 14003KT 35/20 A2998 RMK A01 T03520195  RH  040%=      5-min Rain = 0
KST2 142227Z 12005KT 35/20 A2998 RMK A01 T03510195  RH  040%=      5-min Rain = 0
KST2 142228Z 09009G14KT 35/19 A2998 RMK A01 T03510194  RH  040%=      5-min Rain = 0
KST2 142229Z 07009KT 35/20 A2998 RMK A01 T03540195  RH  039%=      5-min Rain = 0
KST2 142230Z 08009KT 36/19 A2998 RMK A01 T03550194  RH  039%=      5-min Rain = 0
KST2 142231Z 07006KT 35/19 A2998 RMK A01 T03540194  RH  039%=      5-min Rain = 0
KST2 142232Z 11006KT 35/19 A2998 RMK A01 T03540194  RH  039%=      5-min Rain = 0
KST2 142233Z 11007KT 35/19 A2998 RMK A01 T03540194  RH  039%=      5-min Rain = 0
KST2 142234Z 06010KT 36/20 A2998 RMK A01 T03560196  RH  039%=      5-min Rain = 0
KST2 142235Z 07010KT 36/20 A2998 RMK A01 T03570196  RH  039%=      5-min Rain = 0
KST2 142236Z 08008KT 36/19 A2998 RMK A01 T03560194  RH  039%=      5-min Rain = 0
KST2 142237Z 09010KT 35/19 A2998 RMK A01 T03540194  RH  039%=      5-min Rain = 0
KST2 142238Z 07012KT 36/20 A2998 RMK A01 T03550196  RH  039%=      5-min Rain = 0
KST2 142239Z 08013KT 36/20 A2998 RMK A01 T03560196  RH  039%=      5-min Rain = 0
KST2 142240Z 07011KT 36/20 A2998 RMK A01 T03570195  RH  039%=      5-min Rain = 0
KST2 142241Z 07011KT 36/19 A2998 RMK A01 T03560194  RH  039%=      5-min Rain = 0
KST2 142242Z 08010KT 36/19 A2998 RMK A01 T03550193  RH  039%=      5-min Rain = 0
KST2 142243Z 07008KT 35/19 A2998 RMK A01 T03530192  RH  039%=      5-min Rain = 0
KST2 142244Z 07006KT 35/19 A2998 RMK A01 T03520191  RH  039%=      5-min Rain = 0
KST2 142245Z 07008KT 35/19 A2998 RMK A01 T03510192  RH  039%=      5-min Rain = 0
KST2 142246Z 08009KT 35/19 A2998 RMK A01 T03510193  RH  039%=      5-min Rain = 0
KST2 142247Z 06009KT 35/19 A2998 RMK A01 T03530192  RH  039%=      5-min Rain = 0
KST2 142248Z 07009KT 35/19 A2998 RMK A01 T03530192  RH  039%=      5-min Rain = 0
KST2 142249Z 08008KT 35/19 A2998 RMK A01 T03540192  RH  039%=      5-min Rain = 0
KST2 142250Z 09006KT 35/19 A2998 RMK A01 T03540191  RH  038%=      5-min Rain = 0
KST2 142251Z 08004KT 35/19 A2998 RMK A01 T03530191  RH  039%=      5-min Rain = 0
KST2 142252Z 06006KT 35/19 A2998 RMK A01 T03530192  RH  039%=      5-min Rain = 0
KST2 142253Z 07006KT 35/19 A2998 RMK A01 T03530194  RH  039%=      5-min Rain = 0
KST2 142254Z 08010KT 35/20 A2998 RMK A01 T03540195  RH  039%=      5-min Rain = 0
KST2 142255Z 07011KT 36/20 A2998 RMK A01 T03550195  RH  039%=      5-min Rain = 0
KST2 142256Z 07009KT 36/19 A2998 RMK A01 T03550193  RH  039%=      5-min Rain = 0
KST2 142257Z 08009KT 35/19 A2998 RMK A01 T03530192  RH  039%=      5-min Rain = 0
KST2 142258Z 08012KT 35/19 A2998 RMK A01 T03530193  RH  039%=      5-min Rain = 0
KST2 142259Z 08009KT 35/19 A2998 RMK A01 T03530191  RH  039%=      5-min Rain = 0
KST2 142300Z 08010KT 35/19 A2998 RMK A01 T03520192  RH  039%=      5-min Rain = 0
KST2 142301Z 08007KT 35/19 A2998 RMK A01 T03520193  RH  039%=      5-min Rain = 0
KST2 142302Z 07007KT 35/19 A2998 RMK A01 T03530193  RH  039%=      5-min Rain = 0
KST2 142303Z 08008KT 35/19 A2998 RMK A01 T03530194  RH  039%=      5-min Rain = 0
KST2 142304Z 09010KT 35/19 A2998 RMK A01 T03520193  RH  039%=      5-min Rain = 0
KST2 142305Z 10008KT 35/19 A2998 RMK A01 T03510192  RH  039%=      5-min Rain = 0
KST2 142306Z 10009KT 35/19 A2998 RMK A01 T03520192  RH  039%=      5-min Rain = 0
KST2 142307Z 10006KT 35/19 A2998 RMK A01 T03530192  RH  039%=      5-min Rain = 0
KST2 142308Z 09005KT 35/19 A2998 RMK A01 T03530192  RH  039%=      5-min Rain = 0
KST2 142309Z 08005KT 35/19 A2998 RMK A01 T03540193  RH  039%=      5-min Rain = 0
KST2 142310Z 06006KT 35/19 A2998 RMK A01 T03540194  RH  039%=      5-min Rain = 0
KST2 142311Z 09010KT 36/20 A2998 RMK A01 T03550195  RH  039%=      5-min Rain = 0
KST2 142312Z 09011KT 36/20 A2998 RMK A01 T03570195  RH  039%=      5-min Rain = 0
KST2 142313Z 09011KT 36/19 A2998 RMK A01 T03580192  RH  038%=      5-min Rain = 0
KST2 142314Z 09008KT 36/19 A2998 RMK A01 T03570190  RH  038%=      5-min Rain = 0
KST2 142315Z 08008KT 36/19 A2998 RMK A01 T03550191  RH  038%=      5-min Rain = 0
KST2 142316Z 08008KT 35/19 A2998 RMK A01 T03540190  RH  038%=      5-min Rain = 0
KST2 142317Z 08007KT 35/19 A2998 RMK A01 T03530189  RH  038%=      5-min Rain = 0
KST2 142318Z 07009KT 35/19 A2998 RMK A01 T03530190  RH  039%=      5-min Rain = 0
KST2 142319Z 08008KT 35/19 A2998 RMK A01 T03520190  RH  039%=      5-min Rain = 0
KST2 142320Z 07008KT 35/19 A2998 RMK A01 T03530191  RH  039%=      5-min Rain = 0
KST2 142321Z 09006KT 35/19 A2998 RMK A01 T03520191  RH  039%=      5-min Rain = 0
KST2 142322Z 07008KT 35/19 A2998 RMK A01 T03520192  RH  039%=      5-min Rain = 0
KST2 142323Z 07008KT 35/19 A2998 RMK A01 T03520193  RH  039%=      5-min Rain = 0
KST2 142324Z 08008KT 35/19 A2998 RMK A01 T03530194  RH  039%=      5-min Rain = 0
KST2 142325Z 07007KT 35/19 A2998 RMK A01 T03530194  RH  039%=      5-min Rain = 0
KST2 142326Z 07006KT 35/20 A2998 RMK A01 T03530195  RH  040%=      5-min Rain = 0
KST2 142327Z 08006KT 35/19 A2998 RMK A01 T03520194  RH  040%=      5-min Rain = 0
KST2 142328Z 10007KT 35/20 A2998 RMK A01 T03520195  RH  040%=      5-min Rain = 0
KST2 142329Z 09006KT 35/19 A2998 RMK A01 T03510194  RH  040%=      5-min Rain = 0
KST2 142330Z 10006KT 35/19 A2998 RMK A01 T03520194  RH  040%=      5-min Rain = 0
KST2 142331Z 09008KT 35/19 A2998 RMK A01 T03510193  RH  040%=      5-min Rain = 0
KST2 142332Z 10009KT 35/19 A2998 RMK A01 T03510193  RH  039%=      5-min Rain = 0
KST2 142333Z 11009KT 35/19 A2998 RMK A01 T03510193  RH  040%=      5-min Rain = 0
KST2 142334Z 10007KT 35/19 A2998 RMK A01 T03510193  RH  040%=      5-min Rain = 0
KST2 142335Z 09010KT 35/19 A2998 RMK A01 T03510194  RH  040%=      5-min Rain = 0
KST2 142336Z 10008KT 35/19 A2998 RMK A01 T03510194  RH  040%=      5-min Rain = 0
KST2 142337Z 10008KT 35/20 A2998 RMK A01 T03530195  RH  040%=      5-min Rain = 0
KST2 142338Z 09009KT 36/20 A2998 RMK A01 T03550195  RH  039%=      5-min Rain = 0
KST2 142339Z 09007KT 36/19 A2998 RMK A01 T03550194  RH  039%=      5-min Rain = 0
KST2 142340Z 08010KT 35/20 A2998 RMK A01 T03540195  RH  039%=      5-min Rain = 0
KST2 142341Z 07011KT 35/20 A2998 RMK A01 T03540195  RH  040%=      5-min Rain = 0
KST2 142342Z 07011KT 35/20 A2998 RMK A01 T03530195  RH  040%=      5-min Rain = 0
KST2 142343Z 06008KT 35/19 A2998 RMK A01 T03520194  RH  040%=      5-min Rain = 0
KST2 142344Z 06005KT 35/19 A2998 RMK A01 T03500194  RH  040%=      5-min Rain = 0
KST2 142345Z 07005KT 35/20 A2998 RMK A01 T03490195  RH  040%=      5-min Rain = 0
KST2 142346Z 08008KT 35/20 A2998 RMK A01 T03500195  RH  040%=      5-min Rain = 0
KST2 142347Z 07010KT 35/20 A2998 RMK A01 T03500195  RH  040%=      5-min Rain = 0
KST2 142348Z 07009KT 35/19 A2998 RMK A01 T03510194  RH  040%=      5-min Rain = 0
KST2 142349Z 08008KT 35/20 A2998 RMK A01 T03510195  RH  040%=      5-min Rain = 0
KST2 142350Z 08006KT 35/19 A2998 RMK A01 T03500193  RH  040%=      5-min Rain = 0
KST2 142351Z 09006KT 35/19 A2998 RMK A01 T03500194  RH  040%=      5-min Rain = 0
KST2 142352Z 08005KT 35/19 A2998 RMK A01 T03500193  RH  040%=      5-min Rain = 0
KST2 142353Z 08006KT 35/19 A2998 RMK A01 T03500193  RH  040%=      5-min Rain = 0
KST2 142354Z 08008KT 35/19 A2998 RMK A01 T03500194  RH  040%=      5-min Rain = 0
KST2 142355Z 07010KT 35/20 A2998 RMK A01 T03500196  RH  040%=      5-min Rain = 0
KST2 142356Z 06009KT 35/20 A2998 RMK A01 T03500196  RH  041%=      5-min Rain = 0
KST2 142357Z 08009KT 35/20 A2998 RMK A01 T03490197  RH  041%=      5-min Rain = 0
KST2 142358Z 09010KT 35/20 A2998 RMK A01 T03500196  RH  041%=      5-min Rain = 0
KST2 142359Z 08009KT 35/20 A2998 RMK A01 T03500195  RH  040%=      5-min Rain = 0
KST2 150000Z 09010KT 35/20 A2999 RMK A01 T03500195  RH  040%=      5-min Rain = 0
KST2 150001Z 08009KT 35/20 A2999 RMK A01 T03500195  RH  040%=      5-min Rain = 0
KST2 150002Z 08009KT 35/19 A2999 RMK A01 T03480194  RH  040%=      5-min Rain = 0
KST2 150003Z 08007KT 35/20 A2999 RMK A01 T03480195  RH  041%=      5-min Rain = 0
KST2 150004Z 07006KT 35/20 A2999 RMK A01 T03480196  RH  041%=      5-min Rain = 0
KST2 150005Z 07006KT 35/20 A2999 RMK A01 T03480196  RH  041%=      5-min Rain = 0
KST2 150006Z 09008KT 35/20 A2998 RMK A01 T03490195  RH  041%=      5-min Rain = 0
KST2 150007Z 08009KT 35/20 A2998 RMK A01 T03480196  RH  041%=      5-min Rain = 0
KST2 150008Z 06007KT 35/20 A2999 RMK A01 T03480196  RH  041%=      5-min Rain = 0
KST2 150009Z 06007KT 35/20 A2999 RMK A01 T03480195  RH  041%=      5-min Rain = 0
KST2 150010Z 06008KT 35/20 A2999 RMK A01 T03480195  RH  041%=      5-min Rain = 0
KST2 150011Z 08009KT 35/20 A2999 RMK A01 T03480196  RH  041%=      5-min Rain = 0
KST2 150012Z 07008KT 35/20 A2999 RMK A01 T03470195  RH  041%=      5-min Rain = 0
KST2 150013Z 06007KT 35/20 A2999 RMK A01 T03450195  RH  041%=      5-min Rain = 0
KST2 150014Z 07006KT 35/20 A2999 RMK A01 T03450197  RH  042%=      5-min Rain = 0
KST2 150015Z 07007KT 35/20 A2999 RMK A01 T03450197  RH  042%=      5-min Rain = 0
KST2 150016Z 08009KT 35/20 A2999 RMK A01 T03460196  RH  041%=      5-min Rain = 0
KST2 150017Z 06009KT 35/20 A2998 RMK A01 T03460196  RH  041%=      5-min Rain = 0
KST2 150018Z 06009KT 35/20 A2998 RMK A01 T03460196  RH  042%=      5-min Rain = 0
KST2 150019Z 07007KT 35/20 A2998 RMK A01 T03450195  RH  042%=      5-min Rain = 0
KST2 150020Z 07008KT 34/20 A2998 RMK A01 T03440195  RH  042%=      5-min Rain = 0
KST2 150021Z 06008KT 34/20 A2998 RMK A01 T03440195  RH  042%=      5-min Rain = 0
KST2 150022Z 06007KT 34/20 A2998 RMK A01 T03440195  RH  042%=      5-min Rain = 0
KST2 150023Z 07005KT 34/19 A2998 RMK A01 T03430194  RH  041%=      5-min Rain = 0
KST2 150024Z 08005KT 34/19 A2998 RMK A01 T03430193  RH  041%=      5-min Rain = 0
KST2 150025Z 09006KT 34/19 A2998 RMK A01 T03430194  RH  042%=      5-min Rain = 0
KST2 150026Z 09006KT 34/19 A2998 RMK A01 T03430194  RH  042%=      5-min Rain = 0
KST2 150027Z 09007KT 34/19 A2998 RMK A01 T03430194  RH  041%=      5-min Rain = 0
KST2 150028Z 09007KT 34/19 A2998 RMK A01 T03440194  RH  041%=      5-min Rain = 0
KST2 150029Z 08007KT 35/19 A2998 RMK A01 T03450194  RH  041%=      5-min Rain = 0
KST2 150030Z 09010KT 35/20 A2998 RMK A01 T03450195  RH  041%=      5-min Rain = 0
KST2 150031Z 10009KT 35/20 A2998 RMK A01 T03450195  RH  041%=      5-min Rain = 0
KST2 150032Z 09009KT 35/20 A2998 RMK A01 T03450195  RH  041%=      5-min Rain = 0
KST2 150033Z 09009KT 35/20 A2998 RMK A01 T03450195  RH  041%=      5-min Rain = 0
KST2 150034Z 09010KT 34/20 A2998 RMK A01 T03440195  RH  042%=      5-min Rain = 0
KST2 150035Z 08009KT 34/20 A2998 RMK A01 T03440196  RH  042%=      5-min Rain = 0
KST2 150036Z 08010KT 34/20 A2998 RMK A01 T03430196  RH  042%=      5-min Rain = 0
KST2 150037Z 09011KT 34/20 A2998 RMK A01 T03420196  RH  042%=      5-min Rain = 0
KST2 150038Z 09010KT 34/19 A2999 RMK A01 T03420194  RH  042%=      5-min Rain = 0
KST2 150039Z 09009KT 34/20 A2999 RMK A01 T03410195  RH  042%=      5-min Rain = 0
KST2 150040Z 10011KT 34/19 A2999 RMK A01 T03400194  RH  042%=      5-min Rain = 0
KST2 150041Z 08008KT 34/19 A2999 RMK A01 T03410194  RH  042%=      5-min Rain = 0
KST2 150042Z 08009KT 34/20 A2999 RMK A01 T03410195  RH  042%=      5-min Rain = 0
KST2 150043Z 09008KT 34/19 A2999 RMK A01 T03410194  RH  042%=      5-min Rain = 0
KST2 150044Z 10007KT 34/19 A2999 RMK A01 T03400194  RH  042%=      5-min Rain = 0
KST2 150045Z 10009KT 34/19 A2999 RMK A01 T03400194  RH  042%=      5-min Rain = 0
KST2 150046Z 09009KT 34/19 A2999 RMK A01 T03400194  RH  042%=      5-min Rain = 0
KST2 150047Z 10008KT 34/19 A2999 RMK A01 T03410194  RH  042%=      5-min Rain = 0
KST2 150048Z 09010KT 34/19 A2999 RMK A01 T03410193  RH  042%=      5-min Rain = 0
KST2 150049Z 10009KT 34/19 A2999 RMK A01 T03410194  RH  042%=      5-min Rain = 0
KST2 150050Z 10009KT 34/19 A2999 RMK A01 T03410194  RH  042%=      5-min Rain = 0
KST2 150051Z 11009KT 34/19 A2999 RMK A01 T03410194  RH  042%=      5-min Rain = 0
KST2 150052Z 11009KT 34/19 A2999 RMK A01 T03400193  RH  042%=      5-min Rain = 0
KST2 150053Z 10010KT 34/19 A2999 RMK A01 T03400194  RH  042%=      5-min Rain = 0
KST2 150054Z 09010KT 34/19 A2999 RMK A01 T03400194  RH  042%=      5-min Rain = 0
KST2 150055Z 09010KT 34/20 A2999 RMK A01 T03400195  RH  042%=      5-min Rain = 0
KST2 150056Z 09008KT 34/20 A2999 RMK A01 T03390195  RH  043%=      5-min Rain = 0
KST2 150057Z 09008KT 34/20 A2999 RMK A01 T03390195  RH  043%=      5-min Rain = 0
KST2 150058Z 09007KT 34/20 A2999 RMK A01 T03380195  RH  043%=      5-min Rain = 0
KST2 150059Z 09008KT 34/20 A2999 RMK A01 T03370195  RH  043%=      5-min Rain = 0
KST2 150100Z 09006KT 34/20 A2999 RMK A01 T03370195  RH  043%=      5-min Rain = 0
KST2 150101Z 08007KT 34/20 A2999 RMK A01 T03360195  RH  043%=      5-min Rain = 0
KST2 150102Z 09008KT 34/20 A2999 RMK A01 T03360195  RH  044%=      5-min Rain = 0
KST2 150103Z 09009KT 34/20 A2999 RMK A01 T03350196  RH  044%=      5-min Rain = 0
KST2 150104Z 09007KT 34/20 A2999 RMK A01 T03350196  RH  044%=      5-min Rain = 0
KST2 150105Z 09010KT 34/20 A2999 RMK A01 T03350196  RH  044%=      5-min Rain = 0
KST2 150106Z 10010KT 34/20 A2999 RMK A01 T03360196  RH  044%=      5-min Rain = 0
KST2 150107Z 09009KT 34/20 A2999 RMK A01 T03360196  RH  044%=      5-min Rain = 0
KST2 150108Z 09008KT 34/20 A2999 RMK A01 T03360195  RH  044%=      5-min Rain = 0
KST2 150109Z 10009KT 34/20 A2999 RMK A01 T03360195  RH  044%=      5-min Rain = 0
KST2 150110Z 10008KT 34/20 A2999 RMK A01 T03360195  RH  044%=      5-min Rain = 0
KST2 150111Z 10008KT 34/19 A2999 RMK A01 T03350194  RH  044%=      5-min Rain = 0
KST2 150112Z 10008KT 34/19 A2999 RMK A01 T03350194  RH  043%=      5-min Rain = 0
KST2 150113Z 10008KT 34/19 A2999 RMK A01 T03350194  RH  043%=      5-min Rain = 0
KST2 150114Z 10006KT 34/19 A2999 RMK A01 T03350194  RH  044%=      5-min Rain = 0
KST2 150115Z 10008KT 34/19 A2999 RMK A01 T03350194  RH  044%=      5-min Rain = 0
KST2 150116Z 11008KT 33/19 A30 RMK A01 T03340194  RH  044%=      5-min Rain = 0
KST2 150117Z 10008KT 33/19 A30 RMK A01 T03340194  RH  044%=      5-min Rain = 0
KST2 150118Z 10007KT 33/19 A30 RMK A01 T03340194  RH  044%=      5-min Rain = 0
KST2 150119Z 11007KT 33/19 A30 RMK A01 T03340194  RH  044%=      5-min Rain = 0
KST2 150120Z 10008KT 33/19 A30 RMK A01 T03330194  RH  044%=      5-min Rain = 0
KST2 150121Z 09007KT 33/19 A30 RMK A01 T03330194  RH  044%=      5-min Rain = 0
KST2 150122Z 09007KT 33/19 A30 RMK A01 T03330194  RH  044%=      5-min Rain = 0
KST2 150123Z 09005KT 33/19 A30 RMK A01 T03320194  RH  044%=      5-min Rain = 0
KST2 150124Z 08005KT 33/20 A30 RMK A01 T03320195  RH  044%=      5-min Rain = 0
KST2 150125Z 08005KT 33/19 A30 RMK A01 T03310194  RH  045%=      5-min Rain = 0
KST2 150126Z 08005KT 33/19 A30 RMK A01 T03300194  RH  045%=      5-min Rain = 0
KST2 150127Z 08005KT 33/19 A30 RMK A01 T03290194  RH  045%=      5-min Rain = 0
KST2 150128Z 09005KT 33/20 A30 RMK A01 T03280195  RH  045%=      5-min Rain = 0
KST2 150129Z 09005KT 33/19 A30 RMK A01 T03270194  RH  046%=      5-min Rain = 0
KST2 150130Z 09005KT 33/20 A30 RMK A01 T03270195  RH  046%=      5-min Rain = 0
KST2 150131Z 09005KT 33/20 A30 RMK A01 T03260195  RH  046%=      5-min Rain = 0
KST2 150132Z 08005KT 33/20 A30 RMK A01 T03250195  RH  046%=      5-min Rain = 0
KST2 150133Z 08005KT 33/20 A30 RMK A01 T03250195  RH  046%=      5-min Rain = 0
KST2 150134Z 08005KT 32/20 A30 RMK A01 T03240195  RH  046%=      5-min Rain = 0
KST2 150135Z 08005KT 32/20 A30 RMK A01 T03240195  RH  047%=      5-min Rain = 0
KST2 150136Z 07005KT 32/20 A3001 RMK A01 T03230195  RH  047%=      5-min Rain = 0
KST2 150137Z 07006KT 32/20 A3001 RMK A01 T03230196  RH  047%=      5-min Rain = 0
KST2 150138Z 07005KT 32/20 A3001 RMK A01 T03220196  RH  047%=      5-min Rain = 0
KST2 150139Z 07005KT 32/20 A3001 RMK A01 T03220196  RH  047%=      5-min Rain = 0
KST2 150140Z 07005KT 32/20 A3001 RMK A01 T03210195  RH  047%=      5-min Rain = 0
KST2 150141Z 07005KT 32/20 A3001 RMK A01 T03210196  RH  048%=      5-min Rain = 0
KST2 150142Z 07005KT 32/20 A3001 RMK A01 T03210195  RH  048%=      5-min Rain = 0
KST2 150143Z 07005KT 32/20 A3001 RMK A01 T03200195  RH  048%=      5-min Rain = 0
KST2 150144Z 08005KT 32/20 A3001 RMK A01 T03200195  RH  048%=      5-min Rain = 0
KST2 150145Z 08005KT 32/20 A3001 RMK A01 T03190195  RH  048%=      5-min Rain = 0
KST2 150146Z 07005KT 32/20 A3001 RMK A01 T03190195  RH  048%=      5-min Rain = 0
KST2 150147Z 08005KT 32/20 A3001 RMK A01 T03180195  RH  048%=      5-min Rain = 0
KST2 150148Z 08004KT 32/20 A3001 RMK A01 T03180195  RH  048%=      5-min Rain = 0
KST2 150149Z 08005KT 32/20 A3001 RMK A01 T03180195  RH  048%=      5-min Rain = 0
KST2 150150Z 08005KT 32/20 A3001 RMK A01 T03170195  RH  048%=      5-min Rain = 0
KST2 150151Z 08005KT 32/20 A3001 RMK A01 T03170195  RH  048%=      5-min Rain = 0
KST2 150152Z 08005KT 32/20 A3001 RMK A01 T03160195  RH  049%=      5-min Rain = 0
KST2 150153Z 08005KT 32/20 A3001 RMK A01 T03160195  RH  049%=      5-min Rain = 0
KST2 150154Z 08005KT 32/20 A3001 RMK A01 T03160195  RH  049%=      5-min Rain = 0
KST2 150155Z 08005KT 32/20 A3001 RMK A01 T03150195  RH  049%=      5-min Rain = 0
KST2 150156Z 08005KT 32/20 A3002 RMK A01 T03150195  RH  049%=      5-min Rain = 0
KST2 150157Z 08005KT 31/20 A3002 RMK A01 T03140195  RH  049%=      5-min Rain = 0
KST2 150158Z 08005KT 31/20 A3002 RMK A01 T03140195  RH  049%=      5-min Rain = 0
KST2 150159Z 08005KT 31/20 A3002 RMK A01 T03130195  RH  049%=      5-min Rain = 0
KST2 150200Z 09005KT 31/20 A3002 RMK A01 T03130196  RH  050%=      5-min Rain = 0
KST2 150201Z 08005KT 31/20 A3002 RMK A01 T03130196  RH  050%=      5-min Rain = 0
KST2 150202Z 08006KT 31/20 A3002 RMK A01 T03130196  RH  050%=      5-min Rain = 0
KST2 150203Z 08005KT 31/20 A3002 RMK A01 T03120196  RH  050%=      5-min Rain = 0
KST2 150204Z 07005KT 31/20 A3002 RMK A01 T03120196  RH  050%=      5-min Rain = 0
KST2 150205Z 07005KT 31/20 A3002 RMK A01 T03110196  RH  050%=      5-min Rain = 0
KST2 150206Z 07005KT 31/20 A3002 RMK A01 T03110196  RH  050%=      5-min Rain = 0
KST2 150207Z 08005KT 31/20 A3002 RMK A01 T03110196  RH  050%=      5-min Rain = 0
KST2 150208Z 08006KT 31/20 A3002 RMK A01 T03100196  RH  051%=      5-min Rain = 0
KST2 150209Z 08005KT 31/20 A3002 RMK A01 T03100196  RH  051%=      5-min Rain = 0
KST2 150210Z 08005KT 31/20 A3003 RMK A01 T03100196  RH  051%=      5-min Rain = 0
KST2 150211Z 08005KT 31/20 A3003 RMK A01 T03100196  RH  051%=      5-min Rain = 0
KST2 150212Z 08005KT 31/20 A3003 RMK A01 T03100196  RH  051%=      5-min Rain = 0
KST2 150213Z 08005KT 31/20 A3003 RMK A01 T03100196  RH  051%=      5-min Rain = 0
KST2 150214Z 08005KT 31/20 A3003 RMK A01 T03100196  RH  051%=      5-min Rain = 0
KST2 150215Z 08006KT 31/20 A3003 RMK A01 T03090196  RH  051%=      5-min Rain = 0
KST2 150216Z 09005KT 31/20 A3003 RMK A01 T03100197  RH  051%=      5-min Rain = 0
KST2 150217Z 08006KT 31/20 A3003 RMK A01 T03100197  RH  051%=      5-min Rain = 0
KST2 150218Z 08006KT 31/20 A3003 RMK A01 T03090197  RH  051%=      5-min Rain = 0
KST2 150219Z 08006KT 31/20 A3003 RMK A01 T03090197  RH  051%=      5-min Rain = 0
KST2 150220Z 08006KT 31/20 A3003 RMK A01 T03090197  RH  051%=      5-min Rain = 0
KST2 150221Z 08005KT 31/20 A3004 RMK A01 T03090197  RH  051%=      5-min Rain = 0
KST2 150222Z 08005KT 31/20 A3004 RMK A01 T03080197  RH  052%=      5-min Rain = 0
KST2 150223Z 08005KT 31/20 A3004 RMK A01 T03080197  RH  052%=      5-min Rain = 0
KST2 150224Z 08005KT 31/20 A3004 RMK A01 T03080197  RH  052%=      5-min Rain = 0
KST2 150225Z 08005KT 31/20 A3004 RMK A01 T03070197  RH  052%=      5-min Rain = 0
KST2 150226Z 08005KT 31/20 A3004 RMK A01 T03070197  RH  052%=      5-min Rain = 0
KST2 150227Z 08005KT 31/20 A3004 RMK A01 T03060197  RH  052%=      5-min Rain = 0
KST2 150228Z 07005KT 31/20 A3004 RMK A01 T03060197  RH  052%=      5-min Rain = 0
KST2 150229Z 07005KT 31/20 A3004 RMK A01 T03050197  RH  052%=      5-min Rain = 0
KST2 150230Z 07005KT 31/20 A3004 RMK A01 T03050197  RH  052%=      5-min Rain = 0
KST2 150231Z 07005KT 31/20 A3004 RMK A01 T03050197  RH  053%=      5-min Rain = 0
KST2 150232Z 07005KT 30/20 A3004 RMK A01 T03040197  RH  053%=      5-min Rain = 0
KST2 150233Z 07005KT 30/20 A3004 RMK A01 T03040197  RH  053%=      5-min Rain = 0
KST2 150234Z 07005KT 30/20 A3004 RMK A01 T03040197  RH  053%=      5-min Rain = 0
KST2 150235Z 07004KT 30/20 A3004 RMK A01 T03030198  RH  053%=      5-min Rain = 0
KST2 150236Z 07005KT 30/20 A3004 RMK A01 T03030198  RH  053%=      5-min Rain = 0
KST2 150237Z 07004KT 30/20 A3005 RMK A01 T03030198  RH  053%=      5-min Rain = 0
KST2 150238Z 07005KT 30/20 A3005 RMK A01 T03020198  RH  054%=      5-min Rain = 0
KST2 150239Z 07004KT 30/20 A3005 RMK A01 T03020198  RH  054%=      5-min Rain = 0
KST2 150240Z 07004KT 30/20 A3005 RMK A01 T03020198  RH  054%=      5-min Rain = 0
KST2 150241Z 07004KT 30/20 A3005 RMK A01 T03010198  RH  054%=      5-min Rain = 0
KST2 150242Z 07004KT 30/20 A3005 RMK A01 T03010198  RH  054%=      5-min Rain = 0
KST2 150243Z 07004KT 30/20 A3005 RMK A01 T03010198  RH  054%=      5-min Rain = 0
KST2 150244Z 07004KT 30/20 A3005 RMK A01 T03000198  RH  054%=      5-min Rain = 0
KST2 150245Z 07004KT 30/20 A3005 RMK A01 T03000198  RH  054%=      5-min Rain = 0
KST2 150246Z 07004KT 30/20 A3005 RMK A01 T02990197  RH  055%=      5-min Rain = 0
KST2 150247Z 07004KT 30/20 A3005 RMK A01 T02980197  RH  055%=      5-min Rain = 0
KST2 150248Z 06004KT 30/20 A3005 RMK A01 T02980197  RH  055%=      5-min Rain = 0
KST2 150249Z 06004KT 30/20 A3005 RMK A01 T02980198  RH  055%=      5-min Rain = 0
KST2 150250Z 06004KT 30/20 A3005 RMK A01 T02970198  RH  055%=      5-min Rain = 0
KST2 150251Z 05005KT 30/20 A3005 RMK A01 T02970197  RH  055%=      5-min Rain = 0
KST2 150252Z 05006KT 30/20 A3005 RMK A01 T02960197  RH  055%=      5-min Rain = 0
KST2 150253Z 05006KT 30/20 A3005 RMK A01 T02950196  RH  055%=      5-min Rain = 0
KST2 150254Z 04006KT 29/20 A3005 RMK A01 T02940195  RH  055%=      5-min Rain = 0
KST2 150255Z 04006KT 29/19 A3005 RMK A01 T02930194  RH  055%=      5-min Rain = 0
KST2 150256Z 04006KT 29/19 A3005 RMK A01 T02920194  RH  055%=      5-min Rain = 0
KST2 150257Z 04006KT 29/19 A3006 RMK A01 T02910193  RH  056%=      5-min Rain = 0
KST2 150258Z 05006KT 29/19 A3006 RMK A01 T02910193  RH  056%=      5-min Rain = 0
KST2 150259Z 05006KT 29/19 A3006 RMK A01 T02900193  RH  056%=      5-min Rain = 0
KST2 150300Z 05006KT 29/19 A3006 RMK A01 T02900194  RH  056%=      5-min Rain = 0
KST2 150301Z 04006KT 29/19 A3006 RMK A01 T02900194  RH  056%=      5-min Rain = 0
KST2 150302Z 04006KT 29/19 A3006 RMK A01 T02900194  RH  056%=      5-min Rain = 0
KST2 150303Z 05005KT 29/19 A3006 RMK A01 T02900194  RH  056%=      5-min Rain = 0
KST2 150304Z 05006KT 29/19 A3006 RMK A01 T02900194  RH  056%=      5-min Rain = 0
KST2 150305Z 05005KT 29/19 A3006 RMK A01 T02900194  RH  056%=      5-min Rain = 0
KST2 150306Z 05006KT 29/20 A3006 RMK A01 T02900195  RH  056%=      5-min Rain = 0
KST2 150307Z 05007KT 29/20 A3006 RMK A01 T02900195  RH  056%=      5-min Rain = 0
KST2 150308Z 05007KT 29/20 A3006 RMK A01 T02910195  RH  056%=      5-min Rain = 0
KST2 150309Z 05006KT 29/20 A3006 RMK A01 T02910195  RH  056%=      5-min Rain = 0
KST2 150310Z 05007KT 29/20 A3006 RMK A01 T02920196  RH  056%=      5-min Rain = 0
KST2 150311Z 05006KT 29/20 A3006 RMK A01 T02920196  RH  056%=      5-min Rain = 0
KST2 150312Z 05006KT 29/20 A3006 RMK A01 T02930196  RH  056%=      5-min Rain = 0
KST2 150313Z 05006KT 29/20 A3006 RMK A01 T02930196  RH  056%=      5-min Rain = 0
KST2 150314Z 05006KT 29/20 A3006 RMK A01 T02940196  RH  056%=      5-min Rain = 0
KST2 150315Z 05006KT 29/20 A3006 RMK A01 T02930196  RH  056%=      5-min Rain = 0
KST2 150316Z 05005KT 29/20 A3006 RMK A01 T02930196  RH  056%=      5-min Rain = 0
KST2 150317Z 05005KT 29/20 A3006 RMK A01 T02940196  RH  056%=      5-min Rain = 0
KST2 150318Z 06005KT 29/20 A3006 RMK A01 T02940196  RH  056%=      5-min Rain = 0
KST2 150319Z 06005KT 29/20 A3006 RMK A01 T02930195  RH  056%=      5-min Rain = 0
KST2 150320Z 06005KT 29/20 A3007 RMK A01 T02930195  RH  056%=      5-min Rain = 0
KST2 150321Z 06005KT 29/20 A3007 RMK A01 T02930195  RH  056%=      5-min Rain = 0
KST2 150322Z 06005KT 29/20 A3007 RMK A01 T02920195  RH  056%=      5-min Rain = 0
KST2 150323Z 06005KT 29/20 A3007 RMK A01 T02920195  RH  056%=      5-min Rain = 0
KST2 150324Z 06005KT 29/20 A3007 RMK A01 T02920195  RH  056%=      5-min Rain = 0
KST2 150325Z 06005KT 29/20 A3007 RMK A01 T02920195  RH  056%=      5-min Rain = 0
KST2 150326Z 06005KT 29/20 A3007 RMK A01 T02920195  RH  056%=      5-min Rain = 0
KST2 150327Z 06005KT 29/20 A3007 RMK A01 T02910195  RH  056%=      5-min Rain = 0
KST2 150328Z 06005KT 29/20 A3007 RMK A01 T02910195  RH  056%=      5-min Rain = 0
KST2 150329Z 06006KT 29/20 A3007 RMK A01 T02900195  RH  056%=      5-min Rain = 0
KST2 150330Z 05005KT 29/20 A3007 RMK A01 T02900195  RH  056%=      5-min Rain = 0
KST2 150331Z 06005KT 29/20 A3007 RMK A01 T02900195  RH  057%=      5-min Rain = 0
KST2 150332Z 07005KT 29/20 A3007 RMK A01 T02890195  RH  057%=      5-min Rain = 0
KST2 150333Z 07005KT 29/19 A3007 RMK A01 T02890194  RH  057%=      5-min Rain = 0
KST2 150334Z 07006KT 29/19 A3007 RMK A01 T02890194  RH  057%=      5-min Rain = 0
KST2 150335Z 07006KT 29/20 A3007 RMK A01 T02890195  RH  057%=      5-min Rain = 0
KST2 150336Z 06006KT 29/20 A3007 RMK A01 T02890195  RH  057%=      5-min Rain = 0
KST2 150337Z 06006KT 29/20 A3007 RMK A01 T02890196  RH  057%=      5-min Rain = 0
KST2 150338Z 06006KT 29/20 A3007 RMK A01 T02890196  RH  057%=      5-min Rain = 0
KST2 150339Z 07006KT 29/20 A3007 RMK A01 T02890196  RH  057%=      5-min Rain = 0
KST2 150340Z 07006KT 29/20 A3007 RMK A01 T02890196  RH  057%=      5-min Rain = 0
KST2 150341Z 07006KT 29/20 A3007 RMK A01 T02890196  RH  057%=      5-min Rain = 0
KST2 150342Z 07006KT 29/20 A3007 RMK A01 T02890196  RH  057%=      5-min Rain = 0
KST2 150343Z 07006KT 29/20 A3007 RMK A01 T02900196  RH  057%=      5-min Rain = 0
KST2 150344Z 07006KT 29/20 A3007 RMK A01 T02900196  RH  057%=      5-min Rain = 0
KST2 150345Z 08005KT 29/20 A3007 RMK A01 T02890196  RH  057%=      5-min Rain = 0
KST2 150346Z 08006KT 29/20 A3007 RMK A01 T02890196  RH  057%=      5-min Rain = 0
KST2 150347Z 09005KT 29/20 A3007 RMK A01 T02890196  RH  057%=      5-min Rain = 0
KST2 150348Z 09005KT 29/20 A3007 RMK A01 T02890196  RH  057%=      5-min Rain = 0
KST2 150349Z 09006KT 29/20 A3007 RMK A01 T02890196  RH  057%=      5-min Rain = 0
KST2 150350Z 09006KT 29/20 A3007 RMK A01 T02890196  RH  057%=      5-min Rain = 0
KST2 150351Z 09006KT 29/20 A3007 RMK A01 T02880196  RH  057%=      5-min Rain = 0
KST2 150352Z 09006KT 29/20 A3007 RMK A01 T02880196  RH  057%=      5-min Rain = 0
KST2 150353Z 09005KT 29/20 A3007 RMK A01 T02870195  RH  057%=      5-min Rain = 0
KST2 150354Z 09006KT 29/20 A3007 RMK A01 T02870195  RH  057%=      5-min Rain = 0
KST2 150355Z 09006KT 29/20 A3007 RMK A01 T02870196  RH  058%=      5-min Rain = 0
KST2 150356Z 09005KT 29/20 A3007 RMK A01 T02870195  RH  058%=      5-min Rain = 0
KST2 150357Z 09005KT 29/20 A3007 RMK A01 T02870195  RH  058%=      5-min Rain = 0
KST2 150358Z 09005KT 29/20 A3007 RMK A01 T02870195  RH  058%=      5-min Rain = 0
KST2 150359Z 09005KT 29/20 A3007 RMK A01 T02870196  RH  058%=      5-min Rain = 0
KST2 150400Z 09005KT 29/20 A3007 RMK A01 T02860195  RH  058%=      5-min Rain = 0
KST2 150401Z 09005KT 29/20 A3007 RMK A01 T02860195  RH  058%=      5-min Rain = 0
KST2 150402Z 09005KT 29/20 A3007 RMK A01 T02860195  RH  058%=      5-min Rain = 0
KST2 150403Z 10005KT 29/20 A3007 RMK A01 T02860195  RH  058%=      5-min Rain = 0
KST2 150404Z 09006KT 29/20 A3007 RMK A01 T02860195  RH  058%=      5-min Rain = 0
KST2 150405Z 10005KT 29/20 A3007 RMK A01 T02860195  RH  058%=      5-min Rain = 0
KST2 150406Z 09005KT 29/20 A3007 RMK A01 T02860195  RH  058%=      5-min Rain = 0
KST2 150407Z 09005KT 29/20 A3007 RMK A01 T02860195  RH  058%=      5-min Rain = 0
KST2 150408Z 09005KT 29/20 A3007 RMK A01 T02860196  RH  058%=      5-min Rain = 0
KST2 150409Z 09006KT 29/20 A3007 RMK A01 T02860196  RH  058%=      5-min Rain = 0
KST2 150410Z 08006KT 29/20 A3007 RMK A01 T02860196  RH  058%=      5-min Rain = 0
KST2 150411Z 08005KT 29/20 A3007 RMK A01 T02860196  RH  058%=      5-min Rain = 0
KST2 150412Z 09006KT 29/20 A3007 RMK A01 T02860196  RH  058%=      5-min Rain = 0
KST2 150413Z 09006KT 29/20 A3007 RMK A01 T02850196  RH  058%=      5-min Rain = 0
KST2 150414Z 08006KT 29/20 A3007 RMK A01 T02850196  RH  058%=      5-min Rain = 0
KST2 150415Z 08005KT 29/20 A3007 RMK A01 T02850195  RH  058%=      5-min Rain = 0
KST2 150416Z 08006KT 29/20 A3007 RMK A01 T02850196  RH  059%=      5-min Rain = 0
KST2 150417Z 08006KT 29/20 A3008 RMK A01 T02850196  RH  059%=      5-min Rain = 0
KST2 150418Z 08006KT 29/20 A3008 RMK A01 T02850196  RH  058%=      5-min Rain = 0
KST2 150419Z 08006KT 29/20 A3008 RMK A01 T02850196  RH  059%=      5-min Rain = 0
KST2 150420Z 08006KT 29/20 A3008 RMK A01 T02850196  RH  059%=      5-min Rain = 0
KST2 150421Z 08007KT 29/20 A3008 RMK A01 T02850196  RH  058%=      5-min Rain = 0
KST2 150422Z 08006KT 29/20 A3008 RMK A01 T02850196  RH  059%=      5-min Rain = 0
KST2 150423Z 08007KT 29/20 A3008 RMK A01 T02850196  RH  058%=      5-min Rain = 0
KST2 150424Z 08006KT 29/20 A3008 RMK A01 T02850196  RH  058%=      5-min Rain = 0
KST2 150425Z 08007KT 29/20 A3008 RMK A01 T02850196  RH  059%=      5-min Rain = 0
KST2 150426Z 09007KT 29/20 A3008 RMK A01 T02850196  RH  058%=      5-min Rain = 0
KST2 150427Z 08007KT 29/20 A3008 RMK A01 T02860196  RH  058%=      5-min Rain = 0
KST2 150428Z 09007KT 29/20 A3008 RMK A01 T02860196  RH  058%=      5-min Rain = 0
KST2 150429Z 08007KT 29/20 A3008 RMK A01 T02860196  RH  058%=      5-min Rain = 0
KST2 150430Z 08008KT 29/20 A3008 RMK A01 T02860197  RH  058%=      5-min Rain = 0
KST2 150431Z 09008KT 29/20 A3008 RMK A01 T02860196  RH  058%=      5-min Rain = 0
KST2 150432Z 08008KT 29/20 A3008 RMK A01 T02860196  RH  058%=      5-min Rain = 0
KST2 150433Z 09007KT 29/20 A3008 RMK A01 T02860196  RH  058%=      5-min Rain = 0
KST2 150434Z 09007KT 29/20 A3008 RMK A01 T02860196  RH  058%=      5-min Rain = 0
KST2 150435Z 09008KT 29/20 A3008 RMK A01 T02860197  RH  058%=      5-min Rain = 0
KST2 150436Z 09008KT 29/20 A3008 RMK A01 T02870197  RH  058%=      5-min Rain = 0
KST2 150437Z 09007KT 29/20 A3008 RMK A01 T02870197  RH  058%=      5-min Rain = 0
KST2 150438Z 09007KT 29/20 A3008 RMK A01 T02870197  RH  058%=      5-min Rain = 0
KST2 150439Z 09008KT 29/20 A3008 RMK A01 T02870197  RH  058%=      5-min Rain = 0
KST2 150440Z 09008KT 29/20 A3008 RMK A01 T02870197  RH  058%=      5-min Rain = 0
KST2 150441Z 09008KT 29/20 A3008 RMK A01 T02870197  RH  058%=      5-min Rain = 0
KST2 150442Z 09008KT 29/20 A3008 RMK A01 T02870197  RH  058%=      5-min Rain = 0
KST2 150443Z 09009KT 29/20 A3008 RMK A01 T02870198  RH  059%=      5-min Rain = 0
KST2 150444Z 09007KT 29/20 A3008 RMK A01 T02870198  RH  059%=      5-min Rain = 0
KST2 150445Z 09007KT 29/20 A3008 RMK A01 T02860197  RH  059%=      5-min Rain = 0
KST2 150446Z 09007KT 29/20 A3008 RMK A01 T02870198  RH  059%=      5-min Rain = 0
KST2 150447Z 09008KT 29/20 A3008 RMK A01 T02860197  RH  059%=      5-min Rain = 0
KST2 150448Z 09008KT 29/20 A3008 RMK A01 T02860198  RH  059%=      5-min Rain = 0
KST2 150449Z 09007KT 29/20 A3008 RMK A01 T02860198  RH  059%=      5-min Rain = 0
KST2 150450Z 08007KT 29/20 A3008 RMK A01 T02860198  RH  059%=      5-min Rain = 0
KST2 150451Z 08007KT 29/20 A3008 RMK A01 T02860198  RH  059%=      5-min Rain = 0
KST2 150452Z 08007KT 29/20 A3008 RMK A01 T02860198  RH  059%=      5-min Rain = 0
KST2 150453Z 08007KT 29/20 A3008 RMK A01 T02860198  RH  059%=      5-min Rain = 0
KST2 150454Z 09006KT 29/20 A3008 RMK A01 T02850198  RH  059%=      5-min Rain = 0
KST2 150455Z 08008KT 29/20 A3008 RMK A01 T02850198  RH  059%=      5-min Rain = 0
KST2 150456Z 08007KT 29/20 A3008 RMK A01 T02850199  RH  059%=      5-min Rain = 0
KST2 150457Z 08007KT 29/20 A3008 RMK A01 T02850199  RH  059%=      5-min Rain = 0
KST2 150458Z 09006KT 29/20 A3008 RMK A01 T02850199  RH  059%=      5-min Rain = 0
KST2 150459Z 08006KT 29/20 A3008 RMK A01 T02850199  RH  059%=      5-min Rain = 0

Page generated in 0.1214 seconds.